Observation data for McCamey on 01/19/2019      Previous  Date  Next       Current Mesonet Observations  Soil Data  Daily Summary Page  Observations in Plain Language
KMC4 190600Z 32016KT 11/01 A3009 RMK A01 T01110009  RH  049%=      5-min Rain = 0
KMC4 190601Z 32015G20KT 11/01 A3009 RMK A01 T01110010  RH  050%=      5-min Rain = 0
KMC4 190602Z 32013KT 11/01 A3009 RMK A01 T01110010  RH  050%=      5-min Rain = 0
KMC4 190603Z 33012KT 11/01 A3009 RMK A01 T01100010  RH  050%=      5-min Rain = 0
KMC4 190604Z 31010KT 11/01 A3009 RMK A01 T01100010  RH  050%=      5-min Rain = 0
KMC4 190605Z 32012KT 11/01 A3009 RMK A01 T01100010  RH  050%=      5-min Rain = 0
KMC4 190606Z 33014KT 11/01 A3009 RMK A01 T01090010  RH  051%=      5-min Rain = 0
KMC4 190607Z 32011KT 11/01 A3009 RMK A01 T01090011  RH  051%=      5-min Rain = 0
KMC4 190608Z 32014KT 11/01 A3009 RMK A01 T01080011  RH  051%=      5-min Rain = 0
KMC4 190609Z 32012KT 11/01 A3009 RMK A01 T01080011  RH  051%=      5-min Rain = 0
KMC4 190610Z 32011KT 11/01 A3009 RMK A01 T01080011  RH  051%=      5-min Rain = 0
KMC4 190611Z 31010KT 11/01 A3009 RMK A01 T01070011  RH  051%=      5-min Rain = 0
KMC4 190612Z 31009G14KT 11/01 A3009 RMK A01 T01070011  RH  052%=      5-min Rain = 0
KMC4 190613Z 31010KT 11/01 A3009 RMK A01 T01060011  RH  052%=      5-min Rain = 0
KMC4 190614Z 32008KT 11/01 A3009 RMK A01 T01060012  RH  052%=      5-min Rain = 0
KMC4 190615Z 32009KT 11/01 A301 RMK A01 T01060012  RH  052%=      5-min Rain = 0
KMC4 190616Z 33013KT 11/01 A301 RMK A01 T01050011  RH  052%=      5-min Rain = 0
KMC4 190617Z 33013KT 11/01 A3009 RMK A01 T01050011  RH  052%=      5-min Rain = 0
KMC4 190618Z 32015KT 11/01 A3009 RMK A01 T01050012  RH  052%=      5-min Rain = 0
KMC4 190619Z 32010KT 11/01 A301 RMK A01 T01050012  RH  052%=      5-min Rain = 0
KMC4 190620Z 32009KT 11/01 A301 RMK A01 T01050011  RH  052%=      5-min Rain = 0
KMC4 190621Z 33012G17KT 11/01 A301 RMK A01 T01050012  RH  053%=      5-min Rain = 0
KMC4 190622Z 33012KT 10/01 A301 RMK A01 T01040011  RH  053%=      5-min Rain = 0
KMC4 190623Z 33013KT 10/01 A301 RMK A01 T01040011  RH  053%=      5-min Rain = 0
KMC4 190624Z 32012KT 10/01 A301 RMK A01 T01040011  RH  053%=      5-min Rain = 0
KMC4 190625Z 32013G20KT 10/01 A301 RMK A01 T01040011  RH  053%=      5-min Rain = 0
KMC4 190626Z 33020KT 10/01 A301 RMK A01 T01030011  RH  053%=      5-min Rain = 0
KMC4 190627Z 34015KT 10/01 A301 RMK A01 T01040011  RH  053%=      5-min Rain = 0
KMC4 190628Z 34017G23KT 10/01 A301 RMK A01 T01030010  RH  052%=      5-min Rain = 0
KMC4 190629Z 34016G21KT 10/01 A301 RMK A01 T01040010  RH  052%=      5-min Rain = 0
KMC4 190630Z 34014G20KT 10/01 A301 RMK A01 T01040010  RH  052%=      5-min Rain = 0
KMC4 190631Z 34014G19KT 10/01 A301 RMK A01 T01040010  RH  052%=      5-min Rain = 0
KMC4 190632Z 34016KT 10/01 A301 RMK A01 T01030011  RH  053%=      5-min Rain = 0
KMC4 190633Z 33014G19KT 10/01 A301 RMK A01 T01030011  RH  053%=      5-min Rain = 0
KMC4 190634Z 35012G17KT 10/01 A301 RMK A01 T01020011  RH  053%=      5-min Rain = 0
KMC4 190635Z 34013KT 10/01 A301 RMK A01 T01020011  RH  053%=      5-min Rain = 0
KMC4 190636Z 33010KT 10/01 A3011 RMK A01 T01020011  RH  053%=      5-min Rain = 0
KMC4 190637Z 34010KT 10/01 A3011 RMK A01 T01020011  RH  053%=      5-min Rain = 0
KMC4 190638Z 33009KT 10/01 A3011 RMK A01 T01010011  RH  054%=      5-min Rain = 0
KMC4 190639Z 32011KT 10/01 A3011 RMK A01 T01000011  RH  054%=      5-min Rain = 0
KMC4 190640Z 33012KT 10/01 A3011 RMK A01 T01000011  RH  054%=      5-min Rain = 0
KMC4 190641Z 33011KT 10/01 A3011 RMK A01 T01000011  RH  054%=      5-min Rain = 0
KMC4 190642Z 33012KT 10/01 A3011 RMK A01 T00990011  RH  054%=      5-min Rain = 0
KMC4 190643Z 33011KT 10/01 A3011 RMK A01 T00990011  RH  054%=      5-min Rain = 0
KMC4 190644Z 33008KT 10/01 A3011 RMK A01 T00990011  RH  054%=      5-min Rain = 0
KMC4 190645Z 32009KT 10/01 A3011 RMK A01 T00980011  RH  055%=      5-min Rain = 0
KMC4 190646Z 34010G15KT 10/01 A3011 RMK A01 T00980011  RH  055%=      5-min Rain = 0
KMC4 190647Z 33016KT 10/01 A3011 RMK A01 T00970011  RH  055%=      5-min Rain = 0
KMC4 190648Z 33014KT 10/01 A3011 RMK A01 T00980011  RH  055%=      5-min Rain = 0
KMC4 190649Z 33014KT 10/01 A3011 RMK A01 T00980011  RH  055%=      5-min Rain = 0
KMC4 190650Z 33014KT 10/01 A3011 RMK A01 T00980011  RH  055%=      5-min Rain = 0
KMC4 190651Z 34015G23KT 10/01 A3011 RMK A01 T00980012  RH  055%=      5-min Rain = 0
KMC4 190652Z 34017KT 10/01 A3011 RMK A01 T00980012  RH  055%=      5-min Rain = 0
KMC4 190653Z 33016KT 10/01 A3011 RMK A01 T00980012  RH  055%=      5-min Rain = 0
KMC4 190654Z 33019G24KT 10/01 A3011 RMK A01 T00980012  RH  055%=      5-min Rain = 0
KMC4 190655Z 33023G28KT 10/01 A3011 RMK A01 T00970013  RH  056%=      5-min Rain = 0
KMC4 190656Z 33020G26KT 10/01 A3011 RMK A01 T00970013  RH  056%=      5-min Rain = 0
KMC4 190657Z 33016KT 10/01 A3011 RMK A01 T00960014  RH  056%=      5-min Rain = 0
KMC4 190658Z 33019G25KT 10/01 A3011 RMK A01 T00950014  RH  057%=      5-min Rain = 0
KMC4 190659Z 33018KT 10/01 A3011 RMK A01 T00950014  RH  057%=      5-min Rain = 0
KMC4 190700Z 33017KT 10/02 A3011 RMK A01 T00950015  RH  057%=      5-min Rain = 0
KMC4 190701Z 33015G20KT 10/02 A3012 RMK A01 T00950015  RH  057%=      5-min Rain = 0
KMC4 190702Z 34017G22KT 09/02 A3012 RMK A01 T00940015  RH  058%=      5-min Rain = 0
KMC4 190703Z 33018G23KT 09/02 A3012 RMK A01 T00940015  RH  058%=      5-min Rain = 0
KMC4 190704Z 34018KT 09/02 A3012 RMK A01 T00940015  RH  058%=      5-min Rain = 0
KMC4 190705Z 34020G25KT 09/02 A3012 RMK A01 T00940015  RH  058%=      5-min Rain = 0
KMC4 190706Z 34015G21KT 09/02 A3012 RMK A01 T00940015  RH  058%=      5-min Rain = 0
KMC4 190707Z 33015G25KT 09/02 A3012 RMK A01 T00930015  RH  058%=      5-min Rain = 0
KMC4 190708Z 33023G30KT 09/02 A3012 RMK A01 T00930015  RH  058%=      5-min Rain = 0
KMC4 190709Z 34019G24KT 09/02 A3012 RMK A01 T00930015  RH  058%=      5-min Rain = 0
KMC4 190710Z 34015G21KT 09/02 A3012 RMK A01 T00920015  RH  058%=      5-min Rain = 0
KMC4 190711Z 33017G23KT 09/02 A3013 RMK A01 T00920015  RH  058%=      5-min Rain = 0
KMC4 190712Z 33019G26KT 09/02 A3012 RMK A01 T00920015  RH  059%=      5-min Rain = 0
KMC4 190713Z 35016G21KT 09/02 A3013 RMK A01 T00910015  RH  059%=      5-min Rain = 0
KMC4 190714Z 33017KT 09/02 A3013 RMK A01 T00900015  RH  059%=      5-min Rain = 0
KMC4 190715Z 34016G21KT 09/02 A3013 RMK A01 T00900015  RH  059%=      5-min Rain = 0
KMC4 190716Z 34015G20KT 09/02 A3013 RMK A01 T00900015  RH  059%=      5-min Rain = 0
KMC4 190717Z 34018KT 09/02 A3013 RMK A01 T00890015  RH  060%=      5-min Rain = 0
KMC4 190718Z 34014KT 09/02 A3013 RMK A01 T00890015  RH  060%=      5-min Rain = 0
KMC4 190719Z 34012KT 09/02 A3013 RMK A01 T00890015  RH  060%=      5-min Rain = 0
KMC4 190720Z 34013G20KT 09/02 A3013 RMK A01 T00880015  RH  060%=      5-min Rain = 0
KMC4 190721Z 35018KT 09/02 A3013 RMK A01 T00880015  RH  060%=      5-min Rain = 0
KMC4 190722Z 34017G22KT 09/02 A3014 RMK A01 T00880015  RH  060%=      5-min Rain = 0
KMC4 190723Z 35020KT 09/01 A3014 RMK A01 T00880014  RH  060%=      5-min Rain = 0
KMC4 190724Z 36016KT 09/01 A3014 RMK A01 T00870013  RH  059%=      5-min Rain = 0
KMC4 190725Z 36018G23KT 09/01 A3014 RMK A01 T00870012  RH  059%=      5-min Rain = 0
KMC4 190726Z 35020KT 09/01 A3014 RMK A01 T00860010  RH  059%=      5-min Rain = 0
KMC4 190727Z 35016G21KT 09/01 A3014 RMK A01 T00850009  RH  058%=      5-min Rain = 0
KMC4 190728Z 35013KT 09/01 A3015 RMK A01 T00850008  RH  059%=      5-min Rain = 0
KMC4 190729Z 34011KT 08/01 A3015 RMK A01 T00840008  RH  059%=      5-min Rain = 0
KMC4 190730Z 34012KT 08/01 A3015 RMK A01 T00830007  RH  059%=      5-min Rain = 0
KMC4 190731Z 35019G26KT 08/01 A3014 RMK A01 T00820006  RH  058%=      5-min Rain = 0
KMC4 190732Z 34018KT 08/00 A3014 RMK A01 T00820003  RH  058%=      5-min Rain = 0
KMC4 190733Z 34017G22KT 08/00 A3015 RMK A01 T00820003  RH  057%=      5-min Rain = 0
KMC4 190734Z 33014KT 08/00 A3015 RMK A01 T00820002  RH  057%=      5-min Rain = 0
KMC4 190735Z 33016KT 08/00 A3015 RMK A01 T00810001  RH  057%=      5-min Rain = 0
KMC4 190736Z 34016KT 08/00 A3015 RMK A01 T00810000  RH  057%=      5-min Rain = 0
KMC4 190737Z 33013KT 08/00 A3015 RMK A01 T00800000  RH  057%=      5-min Rain = 0
KMC4 190738Z 33016KT 08/00 A3015 RMK A01 T008000-0  RH  057%=      5-min Rain = 0
KMC4 190739Z 33016KT 08/M00 A3015 RMK A01 T00801001  RH  057%=      5-min Rain = 0
KMC4 190740Z 32015G21KT 08/M00 A3015 RMK A01 T00801001  RH  057%=      5-min Rain = 0
KMC4 190741Z 33013KT 08/M00 A3015 RMK A01 T00801001  RH  057%=      5-min Rain = 0
KMC4 190742Z 33013G18KT 08/M00 A3015 RMK A01 T00791001  RH  057%=      5-min Rain = 0
KMC4 190743Z 33015KT 08/M00 A3015 RMK A01 T00791001  RH  057%=      5-min Rain = 0
KMC4 190744Z 34013KT 08/M00 A3015 RMK A01 T00791002  RH  057%=      5-min Rain = 0
KMC4 190745Z 33012KT 08/M00 A3015 RMK A01 T00791002  RH  057%=      5-min Rain = 0
KMC4 190746Z 32014G19KT 08/M00 A3015 RMK A01 T00781002  RH  057%=      5-min Rain = 0
KMC4 190747Z 33014KT 08/M00 A3015 RMK A01 T00781003  RH  057%=      5-min Rain = 0
KMC4 190748Z 33011KT 08/M00 A3016 RMK A01 T00781002  RH  057%=      5-min Rain = 0
KMC4 190749Z 34014KT 08/M00 A3016 RMK A01 T00771003  RH  057%=      5-min Rain = 0
KMC4 190750Z 34010G19KT 08/M00 A3016 RMK A01 T00771004  RH  057%=      5-min Rain = 0
KMC4 190751Z 32013G18KT 08/M00 A3016 RMK A01 T00771003  RH  057%=      5-min Rain = 0
KMC4 190752Z 33012G18KT 08/M00 A3016 RMK A01 T00761004  RH  057%=      5-min Rain = 0
KMC4 190753Z 34012G18KT 08/M00 A3016 RMK A01 T00761004  RH  057%=      5-min Rain = 0
KMC4 190754Z 34016KT 08/M00 A3016 RMK A01 T00761004  RH  057%=      5-min Rain = 0
KMC4 190755Z 33016KT 08/M00 A3016 RMK A01 T00761004  RH  057%=      5-min Rain = 0
KMC4 190756Z 33011KT 08/M01 A3016 RMK A01 T00761005  RH  057%=      5-min Rain = 0
KMC4 190757Z 34013KT 08/M01 A3016 RMK A01 T00761005  RH  057%=      5-min Rain = 0
KMC4 190758Z 34010KT 08/M01 A3016 RMK A01 T00761005  RH  057%=      5-min Rain = 0
KMC4 190759Z 34008KT 08/M01 A3016 RMK A01 T00751005  RH  057%=      5-min Rain = 0
KMC4 190800Z 34010KT 08/M01 A3016 RMK A01 T00751005  RH  057%=      5-min Rain = 0
KMC4 190801Z 33011KT 08/M01 A3016 RMK A01 T00751005  RH  057%=      5-min Rain = 0
KMC4 190802Z 34011KT 08/M01 A3016 RMK A01 T00751005  RH  057%=      5-min Rain = 0
KMC4 190803Z 33011KT 07/M01 A3016 RMK A01 T00741005  RH  057%=      5-min Rain = 0
KMC4 190804Z 33011G16KT 07/M01 A3016 RMK A01 T00741005  RH  057%=      5-min Rain = 0
KMC4 190805Z 33010KT 07/M01 A3016 RMK A01 T00731005  RH  057%=      5-min Rain = 0
KMC4 190806Z 34012KT 07/M01 A3017 RMK A01 T00731006  RH  057%=      5-min Rain = 0
KMC4 190807Z 33011KT 07/M01 A3017 RMK A01 T00731005  RH  058%=      5-min Rain = 0
KMC4 190808Z 33011KT 07/M01 A3017 RMK A01 T00731006  RH  058%=      5-min Rain = 0
KMC4 190809Z 33009KT 07/M01 A3017 RMK A01 T00731005  RH  058%=      5-min Rain = 0
KMC4 190810Z 34009KT 07/M01 A3017 RMK A01 T00721006  RH  058%=      5-min Rain = 0
KMC4 190811Z 34011KT 07/M01 A3017 RMK A01 T00721006  RH  058%=      5-min Rain = 0
KMC4 190812Z 34009KT 07/M01 A3017 RMK A01 T00721006  RH  058%=      5-min Rain = 0
KMC4 190813Z 33011KT 07/M01 A3017 RMK A01 T00721005  RH  058%=      5-min Rain = 0
KMC4 190814Z 33010KT 07/M01 A3017 RMK A01 T00711006  RH  058%=      5-min Rain = 0
KMC4 190815Z 34010KT 07/M01 A3017 RMK A01 T00711006  RH  058%=      5-min Rain = 0
KMC4 190816Z 34009KT 07/M01 A3017 RMK A01 T00711006  RH  058%=      5-min Rain = 0
KMC4 190817Z 34009KT 07/M01 A3017 RMK A01 T00711006  RH  058%=      5-min Rain = 0
KMC4 190818Z 33007KT 07/M01 A3018 RMK A01 T00711006  RH  058%=      5-min Rain = 0
KMC4 190819Z 33007KT 07/M01 A3018 RMK A01 T00701006  RH  059%=      5-min Rain = 0
KMC4 190820Z 32009KT 07/M01 A3018 RMK A01 T00691006  RH  059%=      5-min Rain = 0
KMC4 190821Z 33011KT 07/M01 A3018 RMK A01 T00691006  RH  059%=      5-min Rain = 0
KMC4 190822Z 33009KT 07/M01 A3018 RMK A01 T00691007  RH  058%=      5-min Rain = 0
KMC4 190823Z 33009KT 07/M01 A3018 RMK A01 T00691007  RH  058%=      5-min Rain = 0
KMC4 190824Z 33011KT 07/M01 A3018 RMK A01 T00701006  RH  058%=      5-min Rain = 0
KMC4 190825Z 34010KT 07/M01 A3018 RMK A01 T00701006  RH  058%=      5-min Rain = 0
KMC4 190826Z 33010G17KT 07/M01 A3018 RMK A01 T00691007  RH  058%=      5-min Rain = 0
KMC4 190827Z 33006KT 07/M01 A3018 RMK A01 T00691007  RH  058%=      5-min Rain = 0
KMC4 190828Z 33015KT 07/M01 A3018 RMK A01 T00691007  RH  059%=      5-min Rain = 0
KMC4 190829Z 33012KT 07/M01 A3018 RMK A01 T00691007  RH  059%=      5-min Rain = 0
KMC4 190830Z 32010KT 07/M01 A3018 RMK A01 T00691007  RH  058%=      5-min Rain = 0
KMC4 190831Z 32009KT 07/M01 A3018 RMK A01 T00691007  RH  058%=      5-min Rain = 0
KMC4 190832Z 32012KT 07/M01 A3018 RMK A01 T00691007  RH  058%=      5-min Rain = 0
KMC4 190833Z 33011KT 07/M01 A3018 RMK A01 T00691007  RH  059%=      5-min Rain = 0
KMC4 190834Z 32014G21KT 07/M01 A3018 RMK A01 T00691007  RH  059%=      5-min Rain = 0
KMC4 190835Z 32014G19KT 07/M01 A3018 RMK A01 T00691007  RH  059%=      5-min Rain = 0
KMC4 190836Z 32013KT 07/M01 A3018 RMK A01 T00691007  RH  059%=      5-min Rain = 0
KMC4 190837Z 32014KT 07/M01 A3019 RMK A01 T00691007  RH  058%=      5-min Rain = 0
KMC4 190838Z 32012KT 07/M01 A3019 RMK A01 T00691007  RH  059%=      5-min Rain = 0
KMC4 190839Z 33012KT 07/M01 A3019 RMK A01 T00691006  RH  059%=      5-min Rain = 0
KMC4 190840Z 32013KT 07/M01 A3019 RMK A01 T00681007  RH  059%=      5-min Rain = 0
KMC4 190841Z 33012KT 07/M01 A3019 RMK A01 T00681006  RH  059%=      5-min Rain = 0
KMC4 190842Z 32009KT 07/M01 A3019 RMK A01 T00681006  RH  059%=      5-min Rain = 0
KMC4 190843Z 32012KT 07/M01 A3019 RMK A01 T00671006  RH  059%=      5-min Rain = 0
KMC4 190844Z 31008KT 07/M01 A3019 RMK A01 T00671006  RH  059%=      5-min Rain = 0
KMC4 190845Z 32008KT 07/M01 A3019 RMK A01 T00671006  RH  059%=      5-min Rain = 0
KMC4 190846Z 31011KT 07/M01 A3019 RMK A01 T00671006  RH  060%=      5-min Rain = 0
KMC4 190847Z 31011KT 07/M01 A3019 RMK A01 T00661007  RH  060%=      5-min Rain = 0
KMC4 190848Z 31007KT 07/M01 A3019 RMK A01 T00661007  RH  060%=      5-min Rain = 0
KMC4 190849Z 31011KT 07/M01 A3019 RMK A01 T00661006  RH  060%=      5-min Rain = 0
KMC4 190850Z 31012KT 07/M01 A3019 RMK A01 T00661006  RH  060%=      5-min Rain = 0
KMC4 190851Z 31010G16KT 07/M01 A3019 RMK A01 T00661006  RH  060%=      5-min Rain = 0
KMC4 190852Z 31012KT 07/M01 A3019 RMK A01 T00661006  RH  060%=      5-min Rain = 0
KMC4 190853Z 30008KT 07/M01 A3019 RMK A01 T00661006  RH  060%=      5-min Rain = 0
KMC4 190854Z 31007KT 07/M01 A3019 RMK A01 T00661006  RH  060%=      5-min Rain = 0
KMC4 190855Z 31011KT 07/M01 A3019 RMK A01 T00661006  RH  060%=      5-min Rain = 0
KMC4 190856Z 31012KT 07/M01 A3019 RMK A01 T00661006  RH  060%=      5-min Rain = 0
KMC4 190857Z 31010KT 07/M01 A302 RMK A01 T00661006  RH  060%=      5-min Rain = 0
KMC4 190858Z 30010KT 07/M01 A302 RMK A01 T00661006  RH  060%=      5-min Rain = 0
KMC4 190859Z 31015KT 07/M01 A302 RMK A01 T00651006  RH  060%=      5-min Rain = 0
KMC4 190900Z 30013KT 07/M01 A302 RMK A01 T00651006  RH  060%=      5-min Rain = 0
KMC4 190901Z 30009KT 07/M01 A302 RMK A01 T00651006  RH  060%=      5-min Rain = 0
KMC4 190902Z 31011KT 07/M01 A302 RMK A01 T00651006  RH  061%=      5-min Rain = 0
KMC4 190903Z 30009KT 06/M01 A302 RMK A01 T00641006  RH  061%=      5-min Rain = 0
KMC4 190904Z 30008KT 06/M01 A302 RMK A01 T00641006  RH  061%=      5-min Rain = 0
KMC4 190905Z 30008KT 06/M01 A302 RMK A01 T00641006  RH  061%=      5-min Rain = 0
KMC4 190906Z 30008KT 06/M01 A302 RMK A01 T00631006  RH  061%=      5-min Rain = 0
KMC4 190907Z 30009G14KT 06/M01 A302 RMK A01 T00631006  RH  061%=      5-min Rain = 0
KMC4 190908Z 31009G14KT 06/M01 A302 RMK A01 T00631006  RH  061%=      5-min Rain = 0
KMC4 190909Z 30009KT 06/M01 A302 RMK A01 T00631005  RH  062%=      5-min Rain = 0
KMC4 190910Z 30011KT 06/M01 A302 RMK A01 T00631006  RH  062%=      5-min Rain = 0
KMC4 190911Z 31010KT 06/M01 A302 RMK A01 T00631006  RH  062%=      5-min Rain = 0
KMC4 190912Z 30010KT 06/M01 A302 RMK A01 T00631005  RH  062%=      5-min Rain = 0
KMC4 190913Z 30011KT 06/M01 A302 RMK A01 T00631005  RH  062%=      5-min Rain = 0
KMC4 190914Z 30009KT 06/M01 A302 RMK A01 T00631006  RH  062%=      5-min Rain = 0
KMC4 190915Z 29008G13KT 06/M01 A302 RMK A01 T00631005  RH  062%=      5-min Rain = 0
KMC4 190916Z 30010KT 06/M01 A302 RMK A01 T00621005  RH  062%=      5-min Rain = 0
KMC4 190917Z 29008KT 06/M01 A3021 RMK A01 T00621005  RH  062%=      5-min Rain = 0
KMC4 190918Z 30008KT 06/M01 A3021 RMK A01 T00621005  RH  062%=      5-min Rain = 0
KMC4 190919Z 30008KT 06/M00 A3021 RMK A01 T00621004  RH  062%=      5-min Rain = 0
KMC4 190920Z 30013G18KT 06/M00 A302 RMK A01 T00621004  RH  063%=      5-min Rain = 0
KMC4 190921Z 31012G17KT 06/M00 A302 RMK A01 T00611004  RH  063%=      5-min Rain = 0
KMC4 190922Z 30011KT 06/M00 A302 RMK A01 T00621004  RH  063%=      5-min Rain = 0
KMC4 190923Z 30010KT 06/M00 A3021 RMK A01 T00621004  RH  063%=      5-min Rain = 0
KMC4 190924Z 30010KT 06/M00 A3021 RMK A01 T00621004  RH  063%=      5-min Rain = 0
KMC4 190925Z 29009KT 06/M00 A3021 RMK A01 T00621003  RH  063%=      5-min Rain = 0
KMC4 190926Z 30012KT 06/M00 A3021 RMK A01 T00621003  RH  063%=      5-min Rain = 0
KMC4 190927Z 30012G18KT 06/M00 A302 RMK A01 T00621003  RH  063%=      5-min Rain = 0
KMC4 190928Z 29010KT 06/M00 A3021 RMK A01 T00621003  RH  063%=      5-min Rain = 0
KMC4 190929Z 29011KT 06/M00 A3021 RMK A01 T00621003  RH  063%=      5-min Rain = 0
KMC4 190930Z 29010KT 06/M00 A302 RMK A01 T00621003  RH  063%=      5-min Rain = 0
KMC4 190931Z 30010G15KT 06/M00 A3021 RMK A01 T00621003  RH  063%=      5-min Rain = 0
KMC4 190932Z 31012KT 06/M00 A3021 RMK A01 T00611003  RH  063%=      5-min Rain = 0
KMC4 190933Z 30010KT 06/M00 A3021 RMK A01 T00611003  RH  064%=      5-min Rain = 0
KMC4 190934Z 30010KT 06/M00 A3021 RMK A01 T00611003  RH  064%=      5-min Rain = 0
KMC4 190935Z 30011KT 06/M00 A3021 RMK A01 T00611003  RH  064%=      5-min Rain = 0
KMC4 190936Z 32011KT 06/M00 A302 RMK A01 T00611003  RH  064%=      5-min Rain = 0
KMC4 190937Z 31010KT 06/M00 A3021 RMK A01 T00611003  RH  064%=      5-min Rain = 0
KMC4 190938Z 31014KT 06/M00 A3021 RMK A01 T00611003  RH  063%=      5-min Rain = 0
KMC4 190939Z 31014KT 06/M00 A3021 RMK A01 T00621003  RH  063%=      5-min Rain = 0
KMC4 190940Z 31012G18KT 06/M00 A302 RMK A01 T00621003  RH  063%=      5-min Rain = 0
KMC4 190941Z 31010KT 06/M00 A3021 RMK A01 T00621003  RH  063%=      5-min Rain = 0
KMC4 190942Z 31012KT 06/M00 A3021 RMK A01 T00621003  RH  063%=      5-min Rain = 0
KMC4 190943Z 31012KT 06/M00 A3021 RMK A01 T00611003  RH  063%=      5-min Rain = 0
KMC4 190944Z 31010KT 06/M00 A3021 RMK A01 T00621003  RH  063%=      5-min Rain = 0
KMC4 190945Z 31010KT 06/M00 A3021 RMK A01 T00611003  RH  063%=      5-min Rain = 0
KMC4 190946Z 31009G14KT 06/M00 A3021 RMK A01 T00611003  RH  063%=      5-min Rain = 0
KMC4 190947Z 31010G15KT 06/M00 A3021 RMK A01 T00601004  RH  064%=      5-min Rain = 0
KMC4 190948Z 31011KT 06/M00 A3021 RMK A01 T00601004  RH  064%=      5-min Rain = 0
KMC4 190949Z 31017KT 06/M01 A3021 RMK A01 T00601005  RH  063%=      5-min Rain = 0
KMC4 190950Z 32015KT 06/M01 A3021 RMK A01 T00611006  RH  062%=      5-min Rain = 0
KMC4 190951Z 33016KT 06/M01 A3021 RMK A01 T00611008  RH  061%=      5-min Rain = 0
KMC4 190952Z 32015G21KT 06/M01 A3021 RMK A01 T00611009  RH  061%=      5-min Rain = 0
KMC4 190953Z 31017KT 06/M01 A3021 RMK A01 T00611010  RH  060%=      5-min Rain = 0
KMC4 190954Z 31014G19KT 06/M01 A3021 RMK A01 T00611011  RH  060%=      5-min Rain = 0
KMC4 190955Z 32012G17KT 06/M01 A3021 RMK A01 T00611011  RH  060%=      5-min Rain = 0
KMC4 190956Z 31012KT 06/M01 A3021 RMK A01 T00611011  RH  060%=      5-min Rain = 0
KMC4 190957Z 31014KT 06/M01 A3021 RMK A01 T00611012  RH  060%=      5-min Rain = 0
KMC4 190958Z 32011G16KT 06/M01 A3021 RMK A01 T00611012  RH  060%=      5-min Rain = 0
KMC4 190959Z 31016KT 06/M01 A3021 RMK A01 T00601013  RH  059%=      5-min Rain = 0
KMC4 191000Z 32014KT 06/M01 A3021 RMK A01 T00601013  RH  059%=      5-min Rain = 0
KMC4 191001Z 31014G19KT 06/M01 A3021 RMK A01 T00601014  RH  059%=      5-min Rain = 0
KMC4 191002Z 31013KT 06/M02 A3022 RMK A01 T00601015  RH  059%=      5-min Rain = 0
KMC4 191003Z 32016G24KT 06/M02 A3022 RMK A01 T00601015  RH  058%=      5-min Rain = 0
KMC4 191004Z 31014KT 06/M02 A3022 RMK A01 T00601016  RH  058%=      5-min Rain = 0
KMC4 191005Z 31017G25KT 06/M02 A3022 RMK A01 T00611017  RH  058%=      5-min Rain = 0
KMC4 191006Z 32014G20KT 06/M02 A3022 RMK A01 T00611017  RH  057%=      5-min Rain = 0
KMC4 191007Z 32015KT 06/M02 A3022 RMK A01 T00611017  RH  057%=      5-min Rain = 0
KMC4 191008Z 31015G20KT 06/M02 A3022 RMK A01 T00611017  RH  057%=      5-min Rain = 0
KMC4 191009Z 32015KT 06/M02 A3022 RMK A01 T00611018  RH  057%=      5-min Rain = 0
KMC4 191010Z 31013G20KT 06/M02 A3022 RMK A01 T00611018  RH  057%=      5-min Rain = 0
KMC4 191011Z 31015G22KT 06/M02 A3022 RMK A01 T00601018  RH  057%=      5-min Rain = 0
KMC4 191012Z 32015G22KT 06/M02 A3022 RMK A01 T00601019  RH  057%=      5-min Rain = 0
KMC4 191013Z 32014G21KT 06/M02 A3022 RMK A01 T00601018  RH  057%=      5-min Rain = 0
KMC4 191014Z 32015KT 06/M02 A3022 RMK A01 T00601018  RH  057%=      5-min Rain = 0
KMC4 191015Z 31013KT 06/M02 A3022 RMK A01 T00601018  RH  057%=      5-min Rain = 0
KMC4 191016Z 31013KT 06/M02 A3022 RMK A01 T00601018  RH  057%=      5-min Rain = 0
KMC4 191017Z 31013G20KT 06/M02 A3022 RMK A01 T00601018  RH  057%=      5-min Rain = 0
KMC4 191018Z 32016G22KT 06/M02 A3022 RMK A01 T00591018  RH  057%=      5-min Rain = 0
KMC4 191019Z 32013G20KT 06/M02 A3022 RMK A01 T00591018  RH  057%=      5-min Rain = 0
KMC4 191020Z 31015G20KT 06/M02 A3022 RMK A01 T00591018  RH  057%=      5-min Rain = 0
KMC4 191021Z 31012KT 06/M02 A3022 RMK A01 T00591019  RH  057%=      5-min Rain = 0
KMC4 191022Z 31013G21KT 06/M02 A3023 RMK A01 T00591019  RH  057%=      5-min Rain = 0
KMC4 191023Z 31017G22KT 06/M02 A3022 RMK A01 T00591019  RH  057%=      5-min Rain = 0
KMC4 191024Z 32017G24KT 06/M02 A3023 RMK A01 T00591020  RH  057%=      5-min Rain = 0
KMC4 191025Z 32017G22KT 06/M02 A3022 RMK A01 T00591021  RH  057%=      5-min Rain = 0
KMC4 191026Z 32015G20KT 06/M02 A3023 RMK A01 T00591021  RH  057%=      5-min Rain = 0
KMC4 191027Z 32013KT 06/M02 A3023 RMK A01 T00591021  RH  057%=      5-min Rain = 0
KMC4 191028Z 32015KT 06/M02 A3023 RMK A01 T00581021  RH  057%=      5-min Rain = 0
KMC4 191029Z 32017G22KT 06/M02 A3023 RMK A01 T00581021  RH  057%=      5-min Rain = 0
KMC4 191030Z 32014G20KT 06/M02 A3023 RMK A01 T00591022  RH  056%=      5-min Rain = 0
KMC4 191031Z 32012KT 06/M02 A3023 RMK A01 T00581021  RH  056%=      5-min Rain = 0
KMC4 191032Z 32012G17KT 06/M02 A3023 RMK A01 T00581022  RH  057%=      5-min Rain = 0
KMC4 191033Z 32015KT 06/M02 A3023 RMK A01 T00581021  RH  057%=      5-min Rain = 0
KMC4 191034Z 31011KT 06/M02 A3023 RMK A01 T00581022  RH  057%=      5-min Rain = 0
KMC4 191035Z 32013G20KT 06/M02 A3023 RMK A01 T00571022  RH  057%=      5-min Rain = 0
KMC4 191036Z 31012G19KT 06/M02 A3023 RMK A01 T00581021  RH  057%=      5-min Rain = 0
KMC4 191037Z 31012G17KT 06/M02 A3023 RMK A01 T00571021  RH  057%=      5-min Rain = 0
KMC4 191038Z 32013KT 06/M02 A3023 RMK A01 T00571021  RH  057%=      5-min Rain = 0
KMC4 191039Z 31012KT 06/M02 A3023 RMK A01 T00571020  RH  057%=      5-min Rain = 0
KMC4 191040Z 30011G17KT 06/M02 A3023 RMK A01 T00571020  RH  058%=      5-min Rain = 0
KMC4 191041Z 30012KT 06/M02 A3023 RMK A01 T00561020  RH  058%=      5-min Rain = 0
KMC4 191042Z 31013G18KT 06/M02 A3023 RMK A01 T00561019  RH  058%=      5-min Rain = 0
KMC4 191043Z 31012KT 06/M02 A3023 RMK A01 T00561019  RH  059%=      5-min Rain = 0
KMC4 191044Z 30011KT 06/M02 A3023 RMK A01 T00551019  RH  059%=      5-min Rain = 0
KMC4 191045Z 30009KT 06/M02 A3024 RMK A01 T00551019  RH  059%=      5-min Rain = 0
KMC4 191046Z 30008KT 05/M02 A3024 RMK A01 T00541019  RH  059%=      5-min Rain = 0
KMC4 191047Z 30009KT 05/M02 A3024 RMK A01 T00541019  RH  060%=      5-min Rain = 0
KMC4 191048Z 30010KT 05/M02 A3024 RMK A01 T00541019  RH  060%=      5-min Rain = 0
KMC4 191049Z 30011KT 05/M02 A3024 RMK A01 T00531019  RH  060%=      5-min Rain = 0
KMC4 191050Z 30009KT 05/M02 A3024 RMK A01 T00531018  RH  060%=      5-min Rain = 0
KMC4 191051Z 30011KT 05/M02 A3024 RMK A01 T00531018  RH  060%=      5-min Rain = 0
KMC4 191052Z 30011G16KT 05/M02 A3024 RMK A01 T00531018  RH  060%=      5-min Rain = 0
KMC4 191053Z 29009KT 05/M02 A3024 RMK A01 T00531017  RH  060%=      5-min Rain = 0
KMC4 191054Z 29012KT 05/M02 A3024 RMK A01 T00531017  RH  061%=      5-min Rain = 0
KMC4 191055Z 28010KT 05/M02 A3024 RMK A01 T00521016  RH  061%=      5-min Rain = 0
KMC4 191056Z 29009KT 05/M02 A3024 RMK A01 T00521016  RH  061%=      5-min Rain = 0
KMC4 191057Z 30011KT 05/M02 A3024 RMK A01 T00521016  RH  061%=      5-min Rain = 0
KMC4 191058Z 29008KT 05/M02 A3024 RMK A01 T00521016  RH  062%=      5-min Rain = 0
KMC4 191059Z 29008KT 05/M02 A3024 RMK A01 T00511016  RH  062%=      5-min Rain = 0
KMC4 191100Z 29007KT 05/M02 A3024 RMK A01 T00501016  RH  062%=      5-min Rain = 0
KMC4 191101Z 30008KT 05/M02 A3025 RMK A01 T00501015  RH  063%=      5-min Rain = 0
KMC4 191102Z 29008KT 05/M02 A3025 RMK A01 T00491015  RH  063%=      5-min Rain = 0
KMC4 191103Z 30008KT 05/M02 A3025 RMK A01 T00491015  RH  063%=      5-min Rain = 0
KMC4 191104Z 30011KT 05/M01 A3025 RMK A01 T00491014  RH  063%=      5-min Rain = 0
KMC4 191105Z 30011KT 05/M01 A3025 RMK A01 T00501014  RH  063%=      5-min Rain = 0
KMC4 191106Z 29008KT 05/M01 A3025 RMK A01 T00511014  RH  063%=      5-min Rain = 0
KMC4 191107Z 31009KT 05/M01 A3025 RMK A01 T00511014  RH  063%=      5-min Rain = 0
KMC4 191108Z 30009G14KT 05/M01 A3025 RMK A01 T00501014  RH  063%=      5-min Rain = 0
KMC4 191109Z 31013G18KT 05/M02 A3025 RMK A01 T00501016  RH  062%=      5-min Rain = 0
KMC4 191110Z 32014KT 05/M02 A3025 RMK A01 T00501019  RH  061%=      5-min Rain = 0
KMC4 191111Z 31011KT 05/M02 A3025 RMK A01 T00521021  RH  059%=      5-min Rain = 0
KMC4 191112Z 32015KT 05/M02 A3025 RMK A01 T00521022  RH  059%=      5-min Rain = 0
KMC4 191113Z 32014KT 05/M02 A3025 RMK A01 T00531023  RH  058%=      5-min Rain = 0
KMC4 191114Z 33011G16KT 05/M02 A3026 RMK A01 T00531024  RH  058%=      5-min Rain = 0
KMC4 191115Z 31008KT 05/M02 A3026 RMK A01 T00531024  RH  058%=      5-min Rain = 0
KMC4 191116Z 31008KT 05/M02 A3026 RMK A01 T00531023  RH  058%=      5-min Rain = 0
KMC4 191117Z 31009G14KT 05/M02 A3026 RMK A01 T00521024  RH  058%=      5-min Rain = 0
KMC4 191118Z 31010KT 05/M02 A3026 RMK A01 T00521024  RH  058%=      5-min Rain = 0
KMC4 191119Z 32011KT 05/M03 A3026 RMK A01 T00511025  RH  058%=      5-min Rain = 0
KMC4 191120Z 31010KT 05/M03 A3026 RMK A01 T00511026  RH  057%=      5-min Rain = 0
KMC4 191121Z 31010KT 05/M03 A3026 RMK A01 T00511026  RH  057%=      5-min Rain = 0
KMC4 191122Z 32012KT 05/M03 A3026 RMK A01 T00511026  RH  058%=      5-min Rain = 0
KMC4 191123Z 31008KT 05/M03 A3026 RMK A01 T00511026  RH  058%=      5-min Rain = 0
KMC4 191124Z 31008KT 05/M03 A3026 RMK A01 T00501026  RH  058%=      5-min Rain = 0
KMC4 191125Z 31008KT 05/M03 A3026 RMK A01 T00501025  RH  058%=      5-min Rain = 0
KMC4 191126Z 31007KT 05/M03 A3026 RMK A01 T00501025  RH  058%=      5-min Rain = 0
KMC4 191127Z 30006G11KT 05/M03 A3026 RMK A01 T00491025  RH  059%=      5-min Rain = 0
KMC4 191128Z 30008KT 05/M03 A3026 RMK A01 T00491025  RH  059%=      5-min Rain = 0
KMC4 191129Z 30007KT 05/M03 A3026 RMK A01 T00491025  RH  059%=      5-min Rain = 0
KMC4 191130Z 29005KT 05/M02 A3027 RMK A01 T00491024  RH  059%=      5-min Rain = 0
KMC4 191131Z 28005KT 05/M03 A3027 RMK A01 T00481025  RH  059%=      5-min Rain = 0
KMC4 191132Z 29004KT 05/M02 A3027 RMK A01 T00471024  RH  060%=      5-min Rain = 0
KMC4 191133Z 28006KT 05/M02 A3027 RMK A01 T00471024  RH  060%=      5-min Rain = 0
KMC4 191134Z 28005KT 05/M02 A3027 RMK A01 T00461024  RH  060%=      5-min Rain = 0
KMC4 191135Z 27004KT 05/M02 A3027 RMK A01 T00461024  RH  060%=      5-min Rain = 0
KMC4 191136Z 26004KT 05/M02 A3027 RMK A01 T00461023  RH  061%=      5-min Rain = 0
KMC4 191137Z 26005KT 05/M02 A3027 RMK A01 T00451023  RH  061%=      5-min Rain = 0
KMC4 191138Z 26004KT 05/M02 A3027 RMK A01 T00451022  RH  062%=      5-min Rain = 0
KMC4 191139Z 25005KT 05/M02 A3027 RMK A01 T00451022  RH  062%=      5-min Rain = 0
KMC4 191140Z 26006KT 05/M02 A3027 RMK A01 T00451022  RH  062%=      5-min Rain = 0
KMC4 191141Z 27004KT 05/M02 A3027 RMK A01 T00461022  RH  062%=      5-min Rain = 0
KMC4 191142Z 24004KT 05/M02 A3027 RMK A01 T00471022  RH  061%=      5-min Rain = 0
KMC4 191143Z 25003KT 05/M02 A3027 RMK A01 T00471021  RH  061%=      5-min Rain = 0
KMC4 191144Z 28004G9KT 05/M02 A3027 RMK A01 T00461021  RH  061%=      5-min Rain = 0
KMC4 191145Z 28003KT 05/M02 A3027 RMK A01 T00461022  RH  061%=      5-min Rain = 0
KMC4 191146Z 30003KT 05/M02 A3027 RMK A01 T00461021  RH  062%=      5-min Rain = 0
KMC4 191147Z 30005KT 05/M02 A3027 RMK A01 T00451022  RH  062%=      5-min Rain = 0
KMC4 191148Z 33003KT 05/M02 A3027 RMK A01 T00451022  RH  062%=      5-min Rain = 0
KMC4 191149Z 31002KT 05/M02 A3028 RMK A01 T00451022  RH  062%=      5-min Rain = 0
KMC4 191150Z 30005KT 04/M02 A3028 RMK A01 T00441022  RH  062%=      5-min Rain = 0
KMC4 191151Z 30005KT 04/M02 A3028 RMK A01 T00441023  RH  062%=      5-min Rain = 0
KMC4 191152Z 29004KT 04/M02 A3028 RMK A01 T00441023  RH  062%=      5-min Rain = 0
KMC4 191153Z 30004KT 04/M02 A3028 RMK A01 T00441023  RH  062%=      5-min Rain = 0
KMC4 191154Z 30003KT 04/M02 A3028 RMK A01 T00441023  RH  062%=      5-min Rain = 0
KMC4 191155Z 30003KT 04/M02 A3028 RMK A01 T00441023  RH  062%=      5-min Rain = 0
KMC4 191156Z 30003KT 04/M02 A3028 RMK A01 T00441023  RH  062%=      5-min Rain = 0
KMC4 191157Z 30003KT 04/M02 A3028 RMK A01 T00431023  RH  062%=      5-min Rain = 0
KMC4 191158Z 30004KT 04/M02 A3028 RMK A01 T00431024  RH  062%=      5-min Rain = 0
KMC4 191159Z 30003KT 04/M02 A3028 RMK A01 T00431024  RH  062%=      5-min Rain = 0
KMC4 191200Z 31002KT 04/M02 A3028 RMK A01 T00441024  RH  061%=      5-min Rain = 0
KMC4 191201Z 30001KT 04/M02 A3028 RMK A01 T00441024  RH  062%=      5-min Rain = 0
KMC4 191202Z 30001KT 04/M02 A3029 RMK A01 T00431024  RH  062%=      5-min Rain = 0
KMC4 191203Z 32001KT 04/M02 A3029 RMK A01 T00431024  RH  062%=      5-min Rain = 0
KMC4 191204Z 30001KT 04/M02 A3029 RMK A01 T00421024  RH  062%=      5-min Rain = 0
KMC4 191205Z 29001KT 04/M02 A3029 RMK A01 T00411024  RH  062%=      5-min Rain = 0
KMC4 191206Z 28002KT 04/M03 A3029 RMK A01 T00411025  RH  062%=      5-min Rain = 0
KMC4 191207Z 28002KT 04/M03 A3029 RMK A01 T00401025  RH  063%=      5-min Rain = 0
KMC4 191208Z 29002KT 04/M03 A3029 RMK A01 T00401025  RH  063%=      5-min Rain = 0
KMC4 191209Z 30002KT 04/M03 A3029 RMK A01 T00401025  RH  063%=      5-min Rain = 0
KMC4 191210Z 22000KT 04/M03 A3029 RMK A01 T00401025  RH  063%=      5-min Rain = 0
KMC4 191211Z 24001KT 04/M03 A3029 RMK A01 T00401025  RH  062%=      5-min Rain = 0
KMC4 191212Z 26001KT 04/M03 A3029 RMK A01 T00401025  RH  063%=      5-min Rain = 0
KMC4 191213Z 29000KT 04/M03 A3029 RMK A01 T00401025  RH  063%=      5-min Rain = 0
KMC4 191214Z 29000KT 04/M03 A3029 RMK A01 T00401025  RH  063%=      5-min Rain = 0
KMC4 191215Z 29000KT 04/M03 A3029 RMK A01 T00391025  RH  063%=      5-min Rain = 0
KMC4 191216Z 20001KT 04/M02 A3029 RMK A01 T00401024  RH  063%=      5-min Rain = 0
KMC4 191217Z 23001KT 04/M02 A3029 RMK A01 T00391024  RH  063%=      5-min Rain = 0
KMC4 191218Z 21002KT 04/M02 A3029 RMK A01 T00391024  RH  063%=      5-min Rain = 0
KMC4 191219Z 23003KT 04/M03 A3029 RMK A01 T00381025  RH  063%=      5-min Rain = 0
KMC4 191220Z 23003KT 04/M03 A3029 RMK A01 T00391025  RH  063%=      5-min Rain = 0
KMC4 191221Z 22003KT 04/M03 A3029 RMK A01 T00401025  RH  063%=      5-min Rain = 0
KMC4 191222Z 22004KT 04/M03 A3029 RMK A01 T00401025  RH  063%=      5-min Rain = 0
KMC4 191223Z 22004KT 04/M03 A3029 RMK A01 T00391025  RH  063%=      5-min Rain = 0
KMC4 191224Z 23004KT 04/M03 A3029 RMK A01 T00401025  RH  063%=      5-min Rain = 0
KMC4 191225Z 21003KT 04/M03 A3029 RMK A01 T00411025  RH  062%=      5-min Rain = 0
KMC4 191226Z 21004KT 04/M03 A3029 RMK A01 T00411025  RH  062%=      5-min Rain = 0
KMC4 191227Z 20004KT 04/M03 A3029 RMK A01 T00401025  RH  062%=      5-min Rain = 0
KMC4 191228Z 21003KT 04/M03 A303 RMK A01 T00391025  RH  063%=      5-min Rain = 0
KMC4 191229Z 21005KT 04/M03 A303 RMK A01 T00381026  RH  063%=      5-min Rain = 0
KMC4 191230Z 21005KT 04/M03 A303 RMK A01 T00371026  RH  064%=      5-min Rain = 0
KMC4 191231Z 21004KT 04/M03 A303 RMK A01 T00351026  RH  064%=      5-min Rain = 0
KMC4 191232Z 21006KT 03/M03 A303 RMK A01 T00341026  RH  065%=      5-min Rain = 0
KMC4 191233Z 22005KT 03/M03 A303 RMK A01 T00341026  RH  065%=      5-min Rain = 0
KMC4 191234Z 22005KT 03/M03 A303 RMK A01 T00331026  RH  065%=      5-min Rain = 0
KMC4 191235Z 22005KT 03/M03 A303 RMK A01 T00331026  RH  065%=      5-min Rain = 0
KMC4 191236Z 22006KT 03/M03 A303 RMK A01 T00331025  RH  066%=      5-min Rain = 0
KMC4 191237Z 23006KT 03/M03 A303 RMK A01 T00331025  RH  066%=      5-min Rain = 0
KMC4 191238Z 23006KT 03/M03 A303 RMK A01 T00321026  RH  066%=      5-min Rain = 0
KMC4 191239Z 23006KT 03/M03 A303 RMK A01 T00331026  RH  066%=      5-min Rain = 0
KMC4 191240Z 22006KT 03/M03 A303 RMK A01 T00331026  RH  066%=      5-min Rain = 0
KMC4 191241Z 23006KT 03/M03 A303 RMK A01 T00321026  RH  066%=      5-min Rain = 0
KMC4 191242Z 23006KT 03/M03 A303 RMK A01 T00321026  RH  066%=      5-min Rain = 0
KMC4 191243Z 23006KT 03/M03 A3031 RMK A01 T00331026  RH  065%=      5-min Rain = 0
KMC4 191244Z 23007KT 03/M03 A3031 RMK A01 T00331026  RH  065%=      5-min Rain = 0
KMC4 191245Z 24008KT 04/M03 A3031 RMK A01 T00351026  RH  065%=      5-min Rain = 0
KMC4 191246Z 23007KT 04/M03 A3031 RMK A01 T00351026  RH  064%=      5-min Rain = 0
KMC4 191247Z 24007KT 04/M03 A3031 RMK A01 T00351026  RH  064%=      5-min Rain = 0
KMC4 191248Z 24006KT 04/M03 A3031 RMK A01 T00351026  RH  064%=      5-min Rain = 0
KMC4 191249Z 24007KT 04/M03 A3031 RMK A01 T00351026  RH  064%=      5-min Rain = 0
KMC4 191250Z 24007KT 04/M03 A3031 RMK A01 T00361025  RH  064%=      5-min Rain = 0
KMC4 191251Z 23007KT 04/M03 A3031 RMK A01 T00371025  RH  064%=      5-min Rain = 0
KMC4 191252Z 24007KT 04/M03 A3031 RMK A01 T00381026  RH  063%=      5-min Rain = 0
KMC4 191253Z 24006KT 04/M03 A3031 RMK A01 T00371026  RH  063%=      5-min Rain = 0
KMC4 191254Z 24007KT 04/M03 A3031 RMK A01 T00371026  RH  064%=      5-min Rain = 0
KMC4 191255Z 24007KT 04/M03 A3031 RMK A01 T00371025  RH  063%=      5-min Rain = 0
KMC4 191256Z 24006KT 04/M03 A3031 RMK A01 T00381025  RH  063%=      5-min Rain = 0
KMC4 191257Z 23007KT 04/M03 A3031 RMK A01 T00381026  RH  063%=      5-min Rain = 0
KMC4 191258Z 24007KT 04/M03 A3031 RMK A01 T00381025  RH  063%=      5-min Rain = 0
KMC4 191259Z 24007KT 04/M03 A3031 RMK A01 T00381025  RH  063%=      5-min Rain = 0
KMC4 191300Z 24005KT 04/M03 A3031 RMK A01 T00381026  RH  063%=      5-min Rain = 0
KMC4 191301Z 25005KT 04/M03 A3031 RMK A01 T00381026  RH  063%=      5-min Rain = 0
KMC4 191302Z 25005KT 04/M03 A3032 RMK A01 T00361025  RH  064%=      5-min Rain = 0
KMC4 191303Z 26005KT 04/M03 A3032 RMK A01 T00351025  RH  065%=      5-min Rain = 0
KMC4 191304Z 26005KT 03/M03 A3032 RMK A01 T00331025  RH  065%=      5-min Rain = 0
KMC4 191305Z 25005KT 03/M03 A3032 RMK A01 T00331025  RH  066%=      5-min Rain = 0
KMC4 191306Z 26006KT 03/M03 A3032 RMK A01 T00321025  RH  066%=      5-min Rain = 0
KMC4 191307Z 27005KT 03/M03 A3032 RMK A01 T00321025  RH  066%=      5-min Rain = 0
KMC4 191308Z 26006KT 03/M03 A3032 RMK A01 T00321025  RH  066%=      5-min Rain = 0
KMC4 191309Z 25006KT 03/M02 A3032 RMK A01 T00341024  RH  066%=      5-min Rain = 0
KMC4 191310Z 25005KT 04/M02 A3032 RMK A01 T00351024  RH  066%=      5-min Rain = 0
KMC4 191311Z 25006KT 03/M02 A3032 RMK A01 T00341024  RH  066%=      5-min Rain = 0
KMC4 191312Z 25006KT 03/M02 A3032 RMK A01 T00341024  RH  066%=      5-min Rain = 0
KMC4 191313Z 25006KT 03/M02 A3032 RMK A01 T00331024  RH  066%=      5-min Rain = 0
KMC4 191314Z 25006KT 03/M02 A3032 RMK A01 T00341023  RH  066%=      5-min Rain = 0
KMC4 191315Z 26006KT 03/M02 A3032 RMK A01 T00341023  RH  066%=      5-min Rain = 0
KMC4 191316Z 26006KT 03/M02 A3032 RMK A01 T00341023  RH  066%=      5-min Rain = 0
KMC4 191317Z 27005KT 03/M02 A3032 RMK A01 T00331023  RH  066%=      5-min Rain = 0
KMC4 191318Z 26006KT 03/M02 A3033 RMK A01 T00331023  RH  067%=      5-min Rain = 0
KMC4 191319Z 27007KT 03/M02 A3033 RMK A01 T00331023  RH  067%=      5-min Rain = 0
KMC4 191320Z 26007KT 03/M02 A3033 RMK A01 T00331023  RH  067%=      5-min Rain = 0
KMC4 191321Z 27008KT 03/M02 A3033 RMK A01 T00331023  RH  067%=      5-min Rain = 0
KMC4 191322Z 26007KT 03/M02 A3033 RMK A01 T00341022  RH  067%=      5-min Rain = 0
KMC4 191323Z 27007KT 03/M02 A3033 RMK A01 T00341023  RH  066%=      5-min Rain = 0
KMC4 191324Z 27007KT 04/M02 A3033 RMK A01 T00351022  RH  066%=      5-min Rain = 0
KMC4 191325Z 28006KT 04/M02 A3033 RMK A01 T00351022  RH  066%=      5-min Rain = 0
KMC4 191326Z 28006KT 04/M02 A3033 RMK A01 T00351022  RH  066%=      5-min Rain = 0
KMC4 191327Z 28007KT 04/M02 A3033 RMK A01 T00361022  RH  066%=      5-min Rain = 0
KMC4 191328Z 28006KT 04/M02 A3033 RMK A01 T00351022  RH  066%=      5-min Rain = 0
KMC4 191329Z 28005KT 03/M02 A3034 RMK A01 T00341023  RH  066%=      5-min Rain = 0
KMC4 191330Z 28005KT 03/M02 A3034 RMK A01 T00341023  RH  067%=      5-min Rain = 0
KMC4 191331Z 28006KT 03/M02 A3033 RMK A01 T00331023  RH  067%=      5-min Rain = 0
KMC4 191332Z 27006KT 03/M02 A3033 RMK A01 T00331023  RH  067%=      5-min Rain = 0
KMC4 191333Z 28006KT 03/M02 A3034 RMK A01 T00331022  RH  067%=      5-min Rain = 0
KMC4 191334Z 28006KT 03/M02 A3034 RMK A01 T00321023  RH  068%=      5-min Rain = 0
KMC4 191335Z 28006KT 03/M02 A3034 RMK A01 T00311022  RH  068%=      5-min Rain = 0
KMC4 191336Z 28006KT 03/M02 A3034 RMK A01 T00311022  RH  068%=      5-min Rain = 0
KMC4 191337Z 28006KT 03/M02 A3034 RMK A01 T00311022  RH  068%=      5-min Rain = 0
KMC4 191338Z 28007KT 03/M02 A3034 RMK A01 T00311022  RH  068%=      5-min Rain = 0
KMC4 191339Z 28007KT 03/M02 A3034 RMK A01 T00321022  RH  068%=      5-min Rain = 0
KMC4 191340Z 27007KT 03/M02 A3034 RMK A01 T00321022  RH  068%=      5-min Rain = 0
KMC4 191341Z 27006KT 03/M02 A3034 RMK A01 T00311022  RH  068%=      5-min Rain = 0
KMC4 191342Z 28006KT 03/M02 A3034 RMK A01 T00311021  RH  068%=      5-min Rain = 0
KMC4 191343Z 28006KT 03/M02 A3034 RMK A01 T00311022  RH  068%=      5-min Rain = 0
KMC4 191344Z 29005KT 03/M02 A3034 RMK A01 T00301022  RH  068%=      5-min Rain = 0
KMC4 191345Z 29005KT 03/M02 A3034 RMK A01 T00301022  RH  069%=      5-min Rain = 0
KMC4 191346Z 28005KT 03/M02 A3034 RMK A01 T00301022  RH  069%=      5-min Rain = 0
KMC4 191347Z 28006KT 03/M02 A3034 RMK A01 T00301022  RH  069%=      5-min Rain = 0
KMC4 191348Z 27006KT 03/M02 A3034 RMK A01 T00301022  RH  069%=      5-min Rain = 0
KMC4 191349Z 27006KT 03/M02 A3034 RMK A01 T00301022  RH  069%=      5-min Rain = 0
KMC4 191350Z 28006KT 03/M02 A3034 RMK A01 T00291022  RH  069%=      5-min Rain = 0
KMC4 191351Z 27005KT 03/M02 A3034 RMK A01 T00291022  RH  069%=      5-min Rain = 0
KMC4 191352Z 27005KT 03/M02 A3034 RMK A01 T00281022  RH  070%=      5-min Rain = 0
KMC4 191353Z 28006KT 03/M02 A3034 RMK A01 T00271022  RH  070%=      5-min Rain = 0
KMC4 191354Z 28006KT 03/M02 A3034 RMK A01 T00271022  RH  070%=      5-min Rain = 0
KMC4 191355Z 28006KT 03/M02 A3034 RMK A01 T00261022  RH  070%=      5-min Rain = 0
KMC4 191356Z 28006KT 03/M02 A3034 RMK A01 T00261022  RH  070%=      5-min Rain = 0
KMC4 191357Z 29006KT 03/M02 A3035 RMK A01 T00261023  RH  070%=      5-min Rain = 0
KMC4 191358Z 29006KT 03/M02 A3035 RMK A01 T00261022  RH  071%=      5-min Rain = 0
KMC4 191359Z 28006KT 03/M02 A3035 RMK A01 T00261022  RH  071%=      5-min Rain = 0
KMC4 191400Z 28006KT 03/M02 A3035 RMK A01 T00261023  RH  070%=      5-min Rain = 0
KMC4 191401Z 28007KT 03/M02 A3035 RMK A01 T00261022  RH  070%=      5-min Rain = 0
KMC4 191402Z 28007KT 03/M02 A3035 RMK A01 T00261022  RH  070%=      5-min Rain = 0
KMC4 191403Z 28006KT 03/M02 A3035 RMK A01 T00261022  RH  070%=      5-min Rain = 0
KMC4 191404Z 28006KT 03/M02 A3035 RMK A01 T00261022  RH  070%=      5-min Rain = 0
KMC4 191405Z 28006KT 03/M02 A3035 RMK A01 T00271022  RH  070%=      5-min Rain = 0
KMC4 191406Z 28006KT 03/M02 A3035 RMK A01 T00271022  RH  070%=      5-min Rain = 0
KMC4 191407Z 27006KT 03/M02 A3035 RMK A01 T00271022  RH  070%=      5-min Rain = 0
KMC4 191408Z 28006KT 03/M02 A3035 RMK A01 T00281022  RH  070%=      5-min Rain = 0
KMC4 191409Z 27006KT 03/M02 A3035 RMK A01 T00291021  RH  070%=      5-min Rain = 0
KMC4 191410Z 28007KT 03/M02 A3035 RMK A01 T00291021  RH  070%=      5-min Rain = 0
KMC4 191411Z 28006KT 03/M02 A3035 RMK A01 T00301021  RH  069%=      5-min Rain = 0
KMC4 191412Z 28006KT 03/M02 A3035 RMK A01 T00301021  RH  069%=      5-min Rain = 0
KMC4 191413Z 28006KT 03/M02 A3035 RMK A01 T00301021  RH  069%=      5-min Rain = 0
KMC4 191414Z 28005KT 03/M02 A3035 RMK A01 T00311020  RH  069%=      5-min Rain = 0
KMC4 191415Z 28006KT 03/M02 A3035 RMK A01 T00301020  RH  069%=      5-min Rain = 0
KMC4 191416Z 28006KT 03/M02 A3035 RMK A01 T00311020  RH  069%=      5-min Rain = 0
KMC4 191417Z 28006KT 03/M02 A3035 RMK A01 T00321020  RH  069%=      5-min Rain = 0
KMC4 191418Z 29006KT 03/M02 A3035 RMK A01 T00321020  RH  069%=      5-min Rain = 0
KMC4 191419Z 29006KT 03/M02 A3035 RMK A01 T00331019  RH  068%=      5-min Rain = 0
KMC4 191420Z 29005KT 03/M02 A3035 RMK A01 T00341020  RH  068%=      5-min Rain = 0
KMC4 191421Z 30005KT 03/M02 A3035 RMK A01 T00341019  RH  068%=      5-min Rain = 0
KMC4 191422Z 29005KT 03/M02 A3035 RMK A01 T00341019  RH  068%=      5-min Rain = 0
KMC4 191423Z 28005KT 04/M02 A3035 RMK A01 T00351020  RH  067%=      5-min Rain = 0
KMC4 191424Z 29005KT 04/M02 A3035 RMK A01 T00351020  RH  067%=      5-min Rain = 0
KMC4 191425Z 29006KT 04/M02 A3035 RMK A01 T00351020  RH  067%=      5-min Rain = 0
KMC4 191426Z 29006KT 04/M02 A3035 RMK A01 T00361020  RH  067%=      5-min Rain = 0
KMC4 191427Z 29005KT 04/M02 A3035 RMK A01 T00361020  RH  067%=      5-min Rain = 0
KMC4 191428Z 29005KT 04/M02 A3035 RMK A01 T00371020  RH  067%=      5-min Rain = 0
KMC4 191429Z 29005KT 04/M02 A3035 RMK A01 T00371019  RH  067%=      5-min Rain = 0
KMC4 191430Z 28006KT 04/M02 A3035 RMK A01 T00371019  RH  067%=      5-min Rain = 0
KMC4 191431Z 28006KT 04/M02 A3035 RMK A01 T00381019  RH  066%=      5-min Rain = 0
KMC4 191432Z 28006KT 04/M02 A3035 RMK A01 T00381019  RH  066%=      5-min Rain = 0
KMC4 191433Z 29006KT 04/M02 A3035 RMK A01 T00381019  RH  066%=      5-min Rain = 0
KMC4 191434Z 29006KT 04/M02 A3035 RMK A01 T00391019  RH  066%=      5-min Rain = 0
KMC4 191435Z 29006KT 04/M02 A3035 RMK A01 T00391019  RH  066%=      5-min Rain = 0
KMC4 191436Z 29006KT 04/M02 A3036 RMK A01 T00401019  RH  066%=      5-min Rain = 0
KMC4 191437Z 30005KT 04/M02 A3036 RMK A01 T00401019  RH  065%=      5-min Rain = 0
KMC4 191438Z 30005KT 04/M02 A3036 RMK A01 T00401019  RH  065%=      5-min Rain = 0
KMC4 191439Z 30006KT 04/M02 A3036 RMK A01 T00401019  RH  065%=      5-min Rain = 0
KMC4 191440Z 30005KT 04/M02 A3036 RMK A01 T00401020  RH  065%=      5-min Rain = 0
KMC4 191441Z 30005KT 04/M02 A3036 RMK A01 T00401020  RH  065%=      5-min Rain = 0
KMC4 191442Z 30005KT 04/M02 A3036 RMK A01 T00411019  RH  065%=      5-min Rain = 0
KMC4 191443Z 30005KT 04/M02 A3036 RMK A01 T00411019  RH  065%=      5-min Rain = 0
KMC4 191444Z 30005KT 04/M02 A3036 RMK A01 T00421019  RH  064%=      5-min Rain = 0
KMC4 191445Z 30005KT 04/M02 A3036 RMK A01 T00421019  RH  064%=      5-min Rain = 0
KMC4 191446Z 30006KT 04/M02 A3036 RMK A01 T00431019  RH  064%=      5-min Rain = 0
KMC4 191447Z 30006KT 04/M02 A3036 RMK A01 T00431020  RH  063%=      5-min Rain = 0
KMC4 191448Z 29005KT 04/M02 A3036 RMK A01 T00431020  RH  063%=      5-min Rain = 0
KMC4 191449Z 28006KT 04/M02 A3036 RMK A01 T00441020  RH  063%=      5-min Rain = 0
KMC4 191450Z 29006KT 04/M02 A3036 RMK A01 T00441021  RH  063%=      5-min Rain = 0
KMC4 191451Z 27004KT 05/M02 A3036 RMK A01 T00451021  RH  062%=      5-min Rain = 0
KMC4 191452Z 27004KT 05/M02 A3036 RMK A01 T00461020  RH  062%=      5-min Rain = 0
KMC4 191453Z 27005KT 05/M02 A3036 RMK A01 T00461020  RH  062%=      5-min Rain = 0
KMC4 191454Z 27006KT 05/M02 A3036 RMK A01 T00471021  RH  062%=      5-min Rain = 0
KMC4 191455Z 27005KT 05/M02 A3036 RMK A01 T00471021  RH  061%=      5-min Rain = 0
KMC4 191456Z 28005KT 05/M02 A3036 RMK A01 T00461022  RH  061%=      5-min Rain = 0
KMC4 191457Z 27005KT 05/M02 A3036 RMK A01 T00461021  RH  062%=      5-min Rain = 0
KMC4 191458Z 27005KT 05/M02 A3036 RMK A01 T00461021  RH  062%=      5-min Rain = 0
KMC4 191459Z 27005KT 05/M02 A3036 RMK A01 T00461021  RH  062%=      5-min Rain = 0
KMC4 191500Z 27005KT 05/M02 A3036 RMK A01 T00461020  RH  062%=      5-min Rain = 0
KMC4 191501Z 27005KT 05/M02 A3036 RMK A01 T00461021  RH  062%=      5-min Rain = 0
KMC4 191502Z 27005KT 05/M02 A3036 RMK A01 T00461021  RH  062%=      5-min Rain = 0
KMC4 191503Z 27005KT 05/M02 A3036 RMK A01 T00461021  RH  062%=      5-min Rain = 0
KMC4 191504Z 26005KT 05/M02 A3036 RMK A01 T00461021  RH  062%=      5-min Rain = 0
KMC4 191505Z 26005KT 05/M02 A3036 RMK A01 T00471020  RH  062%=      5-min Rain = 0
KMC4 191506Z 27005KT 05/M02 A3036 RMK A01 T00471019  RH  062%=      5-min Rain = 0
KMC4 191507Z 27006KT 05/M02 A3036 RMK A01 T00481019  RH  062%=      5-min Rain = 0
KMC4 191508Z 28007KT 05/M02 A3036 RMK A01 T00481019  RH  062%=      5-min Rain = 0
KMC4 191509Z 28007KT 05/M02 A3037 RMK A01 T00501018  RH  061%=      5-min Rain = 0
KMC4 191510Z 27009KT 05/M02 A3037 RMK A01 T00531019  RH  060%=      5-min Rain = 0
KMC4 191511Z 27007KT 05/M02 A3037 RMK A01 T00531022  RH  058%=      5-min Rain = 0
KMC4 191512Z 28008KT 05/M02 A3037 RMK A01 T00531022  RH  059%=      5-min Rain = 0
KMC4 191513Z 27008KT 05/M02 A3037 RMK A01 T00531021  RH  059%=      5-min Rain = 0
KMC4 191514Z 27009KT 05/M02 A3037 RMK A01 T00541022  RH  058%=      5-min Rain = 0
KMC4 191515Z 28009KT 05/M02 A3037 RMK A01 T00541021  RH  058%=      5-min Rain = 0
KMC4 191516Z 27008KT 06/M02 A3037 RMK A01 T00551021  RH  058%=      5-min Rain = 0
KMC4 191517Z 29008KT 06/M02 A3037 RMK A01 T00561021  RH  058%=      5-min Rain = 0
KMC4 191518Z 29008KT 06/M02 A3037 RMK A01 T00561022  RH  057%=      5-min Rain = 0
KMC4 191519Z 28010KT 06/M02 A3037 RMK A01 T00571022  RH  057%=      5-min Rain = 0
KMC4 191520Z 28009KT 06/M02 A3037 RMK A01 T00571023  RH  057%=      5-min Rain = 0
KMC4 191521Z 28008KT 06/M02 A3037 RMK A01 T00571022  RH  057%=      5-min Rain = 0
KMC4 191522Z 28009KT 06/M02 A3037 RMK A01 T00591021  RH  057%=      5-min Rain = 0
KMC4 191523Z 29009KT 06/M02 A3037 RMK A01 T00591022  RH  056%=      5-min Rain = 0
KMC4 191524Z 29007KT 06/M02 A3037 RMK A01 T00591022  RH  056%=      5-min Rain = 0
KMC4 191525Z 28008KT 06/M02 A3037 RMK A01 T00601021  RH  056%=      5-min Rain = 0
KMC4 191526Z 28010KT 06/M02 A3037 RMK A01 T00611022  RH  056%=      5-min Rain = 0
KMC4 191527Z 28010KT 06/M02 A3037 RMK A01 T00611023  RH  055%=      5-min Rain = 0
KMC4 191528Z 28010KT 06/M02 A3037 RMK A01 T00601023  RH  055%=      5-min Rain = 0
KMC4 191529Z 28008KT 06/M02 A3037 RMK A01 T00601023  RH  055%=      5-min Rain = 0
KMC4 191530Z 29008KT 06/M02 A3037 RMK A01 T00601023  RH  055%=      5-min Rain = 0
KMC4 191531Z 29008KT 06/M02 A3037 RMK A01 T00601023  RH  055%=      5-min Rain = 0
KMC4 191532Z 28007KT 06/M02 A3037 RMK A01 T00611022  RH  055%=      5-min Rain = 0
KMC4 191533Z 28007KT 06/M02 A3037 RMK A01 T00621020  RH  055%=      5-min Rain = 0
KMC4 191534Z 28009KT 06/M02 A3037 RMK A01 T00631022  RH  055%=      5-min Rain = 0
KMC4 191535Z 28009KT 06/M02 A3037 RMK A01 T00631021  RH  055%=      5-min Rain = 0
KMC4 191536Z 28009KT 06/M02 A3037 RMK A01 T00631022  RH  055%=      5-min Rain = 0
KMC4 191537Z 28008KT 06/M02 A3037 RMK A01 T00621022  RH  055%=      5-min Rain = 0
KMC4 191538Z 29009KT 06/M02 A3037 RMK A01 T00631020  RH  055%=      5-min Rain = 0
KMC4 191539Z 28008KT 06/M02 A3037 RMK A01 T00641020  RH  055%=      5-min Rain = 0
KMC4 191540Z 28009KT 07/M02 A3037 RMK A01 T00651021  RH  054%=      5-min Rain = 0
KMC4 191541Z 28008KT 07/M02 A3037 RMK A01 T00651022  RH  054%=      5-min Rain = 0
KMC4 191542Z 29008KT 07/M02 A3037 RMK A01 T00651020  RH  054%=      5-min Rain = 0
KMC4 191543Z 28009KT 07/M02 A3037 RMK A01 T00661021  RH  054%=      5-min Rain = 0
KMC4 191544Z 28008KT 07/M02 A3037 RMK A01 T00661021  RH  054%=      5-min Rain = 0
KMC4 191545Z 28010KT 07/M02 A3037 RMK A01 T00671021  RH  054%=      5-min Rain = 0
KMC4 191546Z 28011KT 07/M02 A3037 RMK A01 T00671022  RH  053%=      5-min Rain = 0
KMC4 191547Z 29008KT 07/M02 A3038 RMK A01 T00671022  RH  053%=      5-min Rain = 0
KMC4 191548Z 27008KT 07/M02 A3038 RMK A01 T00681020  RH  053%=      5-min Rain = 0
KMC4 191549Z 29009KT 07/M02 A3038 RMK A01 T00701021  RH  052%=      5-min Rain = 0
KMC4 191550Z 29009KT 07/M02 A3038 RMK A01 T00701021  RH  052%=      5-min Rain = 0
KMC4 191551Z 30009KT 07/M02 A3038 RMK A01 T00701022  RH  052%=      5-min Rain = 0
KMC4 191552Z 30006KT 07/M02 A3038 RMK A01 T00711020  RH  052%=      5-min Rain = 0
KMC4 191553Z 30009KT 07/M02 A3038 RMK A01 T00721019  RH  052%=      5-min Rain = 0
KMC4 191554Z 31009KT 07/M02 A3038 RMK A01 T00731021  RH  051%=      5-min Rain = 0
KMC4 191555Z 30012KT 07/M02 A3038 RMK A01 T00731021  RH  051%=      5-min Rain = 0
KMC4 191556Z 30013KT 07/M02 A3038 RMK A01 T00741022  RH  050%=      5-min Rain = 0
KMC4 191557Z 30013KT 08/M02 A3038 RMK A01 T00761022  RH  050%=      5-min Rain = 0
KMC4 191558Z 30009G14KT 08/M02 A3038 RMK A01 T00761023  RH  049%=      5-min Rain = 0
KMC4 191559Z 32011KT 08/M02 A3038 RMK A01 T00781021  RH  050%=      5-min Rain = 0
KMC4 191600Z 31010KT 08/M02 A3038 RMK A01 T00791021  RH  049%=      5-min Rain = 0
KMC4 191601Z 31010KT 08/M02 A3038 RMK A01 T00801022  RH  048%=      5-min Rain = 0
KMC4 191602Z 31010KT 08/M02 A3038 RMK A01 T00801022  RH  049%=      5-min Rain = 0
KMC4 191603Z 31011KT 08/M02 A3038 RMK A01 T00811022  RH  048%=      5-min Rain = 0
KMC4 191604Z 31012G17KT 08/M02 A3038 RMK A01 T00821022  RH  048%=      5-min Rain = 0
KMC4 191605Z 30013KT 08/M02 A3038 RMK A01 T00821023  RH  047%=      5-min Rain = 0
KMC4 191606Z 31008KT 08/M02 A3038 RMK A01 T00821023  RH  047%=      5-min Rain = 0
KMC4 191607Z 32009KT 08/M02 A3039 RMK A01 T00831021  RH  048%=      5-min Rain = 0
KMC4 191608Z 31010G15KT 08/M02 A3038 RMK A01 T00841023  RH  047%=      5-min Rain = 0
KMC4 191609Z 31013G18KT 08/M02 A3038 RMK A01 T00841024  RH  047%=      5-min Rain = 0
KMC4 191610Z 30014KT 08/M03 A3038 RMK A01 T00841025  RH  046%=      5-min Rain = 0
KMC4 191611Z 30012KT 08/M03 A3039 RMK A01 T00841025  RH  046%=      5-min Rain = 0
KMC4 191612Z 31010KT 08/M02 A3039 RMK A01 T00841023  RH  047%=      5-min Rain = 0
KMC4 191613Z 31012KT 09/M02 A3039 RMK A01 T00851023  RH  046%=      5-min Rain = 0
KMC4 191614Z 31014KT 09/M03 A3039 RMK A01 T00861025  RH  046%=      5-min Rain = 0
KMC4 191615Z 30012KT 09/M03 A3039 RMK A01 T00861025  RH  046%=      5-min Rain = 0
KMC4 191616Z 32012KT 09/M02 A3039 RMK A01 T00861024  RH  046%=      5-min Rain = 0
KMC4 191617Z 33013KT 09/M02 A3038 RMK A01 T00861024  RH  046%=      5-min Rain = 0
KMC4 191618Z 32012KT 09/M03 A3039 RMK A01 T00861027  RH  045%=      5-min Rain = 0
KMC4 191619Z 33012KT 09/M03 A3039 RMK A01 T00871025  RH  045%=      5-min Rain = 0
KMC4 191620Z 33012KT 09/M03 A3039 RMK A01 T00891027  RH  044%=      5-min Rain = 0
KMC4 191621Z 33012KT 09/M03 A3039 RMK A01 T00891027  RH  044%=      5-min Rain = 0
KMC4 191622Z 32011KT 09/M03 A3039 RMK A01 T00891026  RH  044%=      5-min Rain = 0
KMC4 191623Z 32014G19KT 09/M03 A3038 RMK A01 T00901025  RH  044%=      5-min Rain = 0
KMC4 191624Z 31012KT 09/M03 A3038 RMK A01 T00911025  RH  044%=      5-min Rain = 0
KMC4 191625Z 32010KT 09/M03 A3039 RMK A01 T00911026  RH  044%=      5-min Rain = 0
KMC4 191626Z 31014KT 09/M03 A3039 RMK A01 T00911026  RH  044%=      5-min Rain = 0
KMC4 191627Z 32010KT 09/M03 A3039 RMK A01 T00911025  RH  044%=      5-min Rain = 0
KMC4 191628Z 32015KT 09/M03 A3039 RMK A01 T00921025  RH  044%=      5-min Rain = 0
KMC4 191629Z 31016KT 09/M03 A3038 RMK A01 T00921027  RH  043%=      5-min Rain = 0
KMC4 191630Z 31013KT 09/M03 A3039 RMK A01 T00911028  RH  043%=      5-min Rain = 0
KMC4 191631Z 32015KT 09/M03 A3039 RMK A01 T00911027  RH  043%=      5-min Rain = 0
KMC4 191632Z 32014KT 09/M03 A3039 RMK A01 T00911027  RH  043%=      5-min Rain = 0
KMC4 191633Z 32013G18KT 09/M03 A3039 RMK A01 T00911028  RH  043%=      5-min Rain = 0
KMC4 191634Z 32013KT 09/M03 A3039 RMK A01 T00911028  RH  043%=      5-min Rain = 0
KMC4 191635Z 33013KT 09/M03 A3039 RMK A01 T00931026  RH  043%=      5-min Rain = 0
KMC4 191636Z 33012KT 09/M03 A3039 RMK A01 T00931027  RH  043%=      5-min Rain = 0
KMC4 191637Z 32012KT 09/M03 A3039 RMK A01 T00941027  RH  043%=      5-min Rain = 0
KMC4 191638Z 31013KT 10/M03 A3038 RMK A01 T00951027  RH  042%=      5-min Rain = 0
KMC4 191639Z 33012KT 10/M03 A3038 RMK A01 T00961027  RH  042%=      5-min Rain = 0
KMC4 191640Z 32011KT 10/M03 A3038 RMK A01 T00971025  RH  042%=      5-min Rain = 0
KMC4 191641Z 32010G15KT 10/M03 A3038 RMK A01 T00991025  RH  042%=      5-min Rain = 0
KMC4 191642Z 32013KT 10/M03 A3038 RMK A01 T01001025  RH  042%=      5-min Rain = 0
KMC4 191643Z 32012KT 10/M03 A3038 RMK A01 T00991027  RH  041%=      5-min Rain = 0
KMC4 191644Z 32008KT 10/M03 A3038 RMK A01 T00981027  RH  041%=      5-min Rain = 0
KMC4 191645Z 32011KT 10/M03 A3038 RMK A01 T00981027  RH  041%=      5-min Rain = 0
KMC4 191646Z 31012KT 10/M03 A3038 RMK A01 T00981026  RH  041%=      5-min Rain = 0
KMC4 191647Z 31011G16KT 10/M03 A3038 RMK A01 T00981028  RH  041%=      5-min Rain = 0
KMC4 191648Z 32015G20KT 10/M03 A3038 RMK A01 T00981027  RH  041%=      5-min Rain = 0
KMC4 191649Z 31014KT 10/M03 A3038 RMK A01 T00981029  RH  041%=      5-min Rain = 0
KMC4 191650Z 33012KT 10/M03 A3038 RMK A01 T00981027  RH  041%=      5-min Rain = 0
KMC4 191651Z 33011KT 10/M03 A3038 RMK A01 T01001027  RH  041%=      5-min Rain = 0
KMC4 191652Z 32012KT 10/M03 A3038 RMK A01 T01011028  RH  040%=      5-min Rain = 0
KMC4 191653Z 32013KT 10/M03 A3038 RMK A01 T01001028  RH  040%=      5-min Rain = 0
KMC4 191654Z 33014KT 10/M03 A3038 RMK A01 T01001028  RH  040%=      5-min Rain = 0
KMC4 191655Z 32012G17KT 10/M03 A3038 RMK A01 T01001028  RH  040%=      5-min Rain = 0
KMC4 191656Z 32011KT 10/M03 A3038 RMK A01 T01001028  RH  041%=      5-min Rain = 0
KMC4 191657Z 31014KT 10/M03 A3038 RMK A01 T01001027  RH  041%=      5-min Rain = 0
KMC4 191658Z 32013G18KT 10/M03 A3038 RMK A01 T01001028  RH  041%=      5-min Rain = 0
KMC4 191659Z 32014KT 10/M03 A3038 RMK A01 T01001027  RH  041%=      5-min Rain = 0
KMC4 191700Z 32013KT 10/M03 A3038 RMK A01 T01001029  RH  040%=      5-min Rain = 0
KMC4 191701Z 33012KT 10/M03 A3038 RMK A01 T01011026  RH  041%=      5-min Rain = 0
KMC4 191702Z 33013KT 10/M03 A3038 RMK A01 T01011028  RH  040%=      5-min Rain = 0
KMC4 191703Z 32013KT 10/M03 A3038 RMK A01 T01011028  RH  040%=      5-min Rain = 0
KMC4 191704Z 32015KT 10/M03 A3038 RMK A01 T01021028  RH  040%=      5-min Rain = 0
KMC4 191705Z 33013KT 10/M03 A3038 RMK A01 T01021029  RH  040%=      5-min Rain = 0
KMC4 191706Z 32013KT 10/M03 A3038 RMK A01 T01011030  RH  040%=      5-min Rain = 0
KMC4 191707Z 33012KT 10/M03 A3038 RMK A01 T01031029  RH  040%=      5-min Rain = 0
KMC4 191708Z 33013KT 10/M03 A3038 RMK A01 T01031031  RH  039%=      5-min Rain = 0
KMC4 191709Z 32013KT 10/M03 A3038 RMK A01 T01031031  RH  039%=      5-min Rain = 0
KMC4 191710Z 34012KT 10/M03 A3038 RMK A01 T01041030  RH  039%=      5-min Rain = 0
KMC4 191711Z 33012KT 10/M03 A3038 RMK A01 T01041030  RH  039%=      5-min Rain = 0
KMC4 191712Z 32016KT 11/M03 A3038 RMK A01 T01051029  RH  039%=      5-min Rain = 0
KMC4 191713Z 32014KT 11/M03 A3038 RMK A01 T01051031  RH  038%=      5-min Rain = 0
KMC4 191714Z 32013KT 10/M03 A3038 RMK A01 T01041030  RH  039%=      5-min Rain = 0
KMC4 191715Z 32011KT 11/M03 A3039 RMK A01 T01051030  RH  039%=      5-min Rain = 0
KMC4 191716Z 33013G19KT 11/M03 A3038 RMK A01 T01061028  RH  039%=      5-min Rain = 0
KMC4 191717Z 32016KT 11/M03 A3038 RMK A01 T01081029  RH  038%=      5-min Rain = 0
KMC4 191718Z 34015KT 11/M03 A3038 RMK A01 T01061032  RH  038%=      5-min Rain = 0
KMC4 191719Z 34012KT 11/M03 A3038 RMK A01 T01051031  RH  038%=      5-min Rain = 0
KMC4 191720Z 34011KT 11/M03 A3038 RMK A01 T01051030  RH  039%=      5-min Rain = 0
KMC4 191721Z 34013KT 11/M03 A3039 RMK A01 T01061031  RH  038%=      5-min Rain = 0
KMC4 191722Z 35015KT 11/M03 A3038 RMK A01 T01061033  RH  038%=      5-min Rain = 0
KMC4 191723Z 36014KT 10/M04 A3038 RMK A01 T01041035  RH  038%=      5-min Rain = 0
KMC4 191724Z 35011KT 10/M03 A3038 RMK A01 T01031033  RH  038%=      5-min Rain = 0
KMC4 191725Z 34011KT 10/M03 A3038 RMK A01 T01031031  RH  039%=      5-min Rain = 0
KMC4 191726Z 34011G16KT 11/M03 A3038 RMK A01 T01051031  RH  038%=      5-min Rain = 0
KMC4 191727Z 34014KT 11/M03 A3038 RMK A01 T01071030  RH  038%=      5-min Rain = 0
KMC4 191728Z 34015KT 11/M03 A3038 RMK A01 T01071031  RH  038%=      5-min Rain = 0
KMC4 191729Z 34009G14KT 11/M03 A3038 RMK A01 T01061031  RH  038%=      5-min Rain = 0
KMC4 191730Z 33009KT 11/M03 A3039 RMK A01 T01071028  RH  039%=      5-min Rain = 0
KMC4 191731Z 35011KT 11/M03 A3038 RMK A01 T01101027  RH  038%=      5-min Rain = 0
KMC4 191732Z 35011G16KT 11/M03 A3038 RMK A01 T01101031  RH  037%=      5-min Rain = 0
KMC4 191733Z 33012KT 11/M03 A3038 RMK A01 T01081031  RH  038%=      5-min Rain = 0
KMC4 191734Z 32012KT 11/M03 A3038 RMK A01 T01081030  RH  038%=      5-min Rain = 0
KMC4 191735Z 33011KT 11/M03 A3038 RMK A01 T01101027  RH  038%=      5-min Rain = 0
KMC4 191736Z 33010KT 11/M03 A3038 RMK A01 T01121027  RH  038%=      5-min Rain = 0
KMC4 191737Z 34012KT 11/M03 A3038 RMK A01 T01121028  RH  037%=      5-min Rain = 0
KMC4 191738Z 34010KT 11/M03 A3038 RMK A01 T01121030  RH  037%=      5-min Rain = 0
KMC4 191739Z 33009G14KT 11/M03 A3039 RMK A01 T01111029  RH  037%=      5-min Rain = 0
KMC4 191740Z 34015KT 11/M03 A3038 RMK A01 T01111029  RH  037%=      5-min Rain = 0
KMC4 191741Z 33015KT 11/M03 A3038 RMK A01 T01121030  RH  037%=      5-min Rain = 0
KMC4 191742Z 33014KT 11/M03 A3038 RMK A01 T01121030  RH  037%=      5-min Rain = 0
KMC4 191743Z 34011KT 11/M03 A3038 RMK A01 T01121031  RH  037%=      5-min Rain = 0
KMC4 191744Z 33014G20KT 11/M03 A3038 RMK A01 T01131032  RH  036%=      5-min Rain = 0
KMC4 191745Z 33012KT 11/M03 A3038 RMK A01 T01141030  RH  036%=      5-min Rain = 0
KMC4 191746Z 35013KT 12/M03 A3038 RMK A01 T01151031  RH  036%=      5-min Rain = 0
KMC4 191747Z 00013KT 11/M03 A3038 RMK A01 T01131033  RH  036%=      5-min Rain = 0
KMC4 191748Z 35012KT 11/M03 A3038 RMK A01 T01111034  RH  036%=      5-min Rain = 0
KMC4 191749Z 34013KT 11/M03 A3038 RMK A01 T01111032  RH  036%=      5-min Rain = 0
KMC4 191750Z 33014KT 11/M03 A3038 RMK A01 T01131033  RH  036%=      5-min Rain = 0
KMC4 191751Z 34013G18KT 11/M04 A3038 RMK A01 T01141035  RH  035%=      5-min Rain = 0
KMC4 191752Z 36013G18KT 11/M04 A3038 RMK A01 T01141037  RH  035%=      5-min Rain = 0
KMC4 191753Z 00013KT 11/M04 A3038 RMK A01 T01131038  RH  034%=      5-min Rain = 0
KMC4 191754Z 01016KT 11/M04 A3038 RMK A01 T01121039  RH  034%=      5-min Rain = 0
KMC4 191755Z 01013KT 11/M04 A3038 RMK A01 T01121038  RH  035%=      5-min Rain = 0
KMC4 191756Z 01012KT 11/M04 A3038 RMK A01 T01141035  RH  035%=      5-min Rain = 0
KMC4 191757Z 00011KT 12/M04 A3038 RMK A01 T01151035  RH  035%=      5-min Rain = 0
KMC4 191758Z 01011KT 12/M04 A3038 RMK A01 T01151035  RH  035%=      5-min Rain = 0
KMC4 191759Z 00011KT 12/M03 A3038 RMK A01 T01161032  RH  035%=      5-min Rain = 0
KMC4 191800Z 35012KT 12/M03 A3038 RMK A01 T01171032  RH  035%=      5-min Rain = 0
KMC4 191801Z 34013KT 12/M03 A3038 RMK A01 T01171034  RH  035%=      5-min Rain = 0
KMC4 191802Z 35011KT 12/M03 A3038 RMK A01 T01151034  RH  035%=      5-min Rain = 0
KMC4 191803Z 34008KT 12/M03 A3037 RMK A01 T01151032  RH  036%=      5-min Rain = 0
KMC4 191804Z 35012G17KT 12/M03 A3037 RMK A01 T01171030  RH  036%=      5-min Rain = 0
KMC4 191805Z 34014KT 12/M03 A3037 RMK A01 T01181032  RH  035%=      5-min Rain = 0
KMC4 191806Z 34010G15KT 12/M03 A3037 RMK A01 T01171032  RH  035%=      5-min Rain = 0
KMC4 191807Z 35012KT 12/M03 A3037 RMK A01 T01171032  RH  035%=      5-min Rain = 0
KMC4 191808Z 35012KT 12/M03 A3037 RMK A01 T01161034  RH  035%=      5-min Rain = 0
KMC4 191809Z 36012KT 11/M03 A3037 RMK A01 T01141034  RH  035%=      5-min Rain = 0
KMC4 191810Z 35011KT 11/M03 A3037 RMK A01 T01131033  RH  036%=      5-min Rain = 0
KMC4 191811Z 33011KT 12/M03 A3037 RMK A01 T01151030  RH  036%=      5-min Rain = 0
KMC4 191812Z 34014G19KT 12/M03 A3037 RMK A01 T01171030  RH  036%=      5-min Rain = 0
KMC4 191813Z 34016KT 12/M03 A3037 RMK A01 T01171032  RH  035%=      5-min Rain = 0
KMC4 191814Z 34015KT 12/M03 A3037 RMK A01 T01161033  RH  035%=      5-min Rain = 0
KMC4 191815Z 32017KT 12/M03 A3037 RMK A01 T01161032  RH  035%=      5-min Rain = 0
KMC4 191816Z 33018KT 12/M03 A3037 RMK A01 T01171031  RH  035%=      5-min Rain = 0
KMC4 191817Z 34014KT 12/M03 A3037 RMK A01 T01181033  RH  035%=      5-min Rain = 0
KMC4 191818Z 34014G19KT 12/M03 A3037 RMK A01 T01171033  RH  035%=      5-min Rain = 0
KMC4 191819Z 34012KT 12/M03 A3037 RMK A01 T01171034  RH  035%=      5-min Rain = 0
KMC4 191820Z 34012KT 12/M03 A3037 RMK A01 T01171033  RH  035%=      5-min Rain = 0
KMC4 191821Z 35011KT 12/M03 A3037 RMK A01 T01171034  RH  035%=      5-min Rain = 0
KMC4 191822Z 35008KT 12/M03 A3037 RMK A01 T01181032  RH  035%=      5-min Rain = 0
KMC4 191823Z 33010KT 12/M03 A3036 RMK A01 T01201029  RH  035%=      5-min Rain = 0
KMC4 191824Z 34009G14KT 12/M03 A3036 RMK A01 T01221028  RH  035%=      5-min Rain = 0
KMC4 191825Z 33016KT 12/M03 A3036 RMK A01 T01241029  RH  034%=      5-min Rain = 0
KMC4 191826Z 33015KT 12/M03 A3036 RMK A01 T01241030  RH  034%=      5-min Rain = 0
KMC4 191827Z 34012KT 12/M03 A3036 RMK A01 T01231031  RH  034%=      5-min Rain = 0
KMC4 191828Z 34013KT 12/M03 A3036 RMK A01 T01211032  RH  034%=      5-min Rain = 0
KMC4 191829Z 33011KT 12/M03 A3036 RMK A01 T01211032  RH  034%=      5-min Rain = 0
KMC4 191830Z 34013KT 12/M03 A3036 RMK A01 T01201030  RH  035%=      5-min Rain = 0
KMC4 191831Z 34011KT 12/M03 A3036 RMK A01 T01211032  RH  034%=      5-min Rain = 0
KMC4 191832Z 34014KT 12/M03 A3036 RMK A01 T01211032  RH  034%=      5-min Rain = 0
KMC4 191833Z 34014KT 12/M03 A3036 RMK A01 T01211033  RH  034%=      5-min Rain = 0
KMC4 191834Z 34011KT 12/M03 A3036 RMK A01 T01221033  RH  034%=      5-min Rain = 0
KMC4 191835Z 32015KT 12/M03 A3036 RMK A01 T01231029  RH  034%=      5-min Rain = 0
KMC4 191836Z 33013KT 13/M03 A3036 RMK A01 T01251032  RH  033%=      5-min Rain = 0
KMC4 191837Z 32010G15KT 12/M03 A3036 RMK A01 T01231034  RH  033%=      5-min Rain = 0
KMC4 191838Z 34009KT 12/M03 A3036 RMK A01 T01221031  RH  034%=      5-min Rain = 0
KMC4 191839Z 32013G19KT 12/M03 A3036 RMK A01 T01231030  RH  034%=      5-min Rain = 0
KMC4 191840Z 33015KT 13/M03 A3036 RMK A01 T01251031  RH  033%=      5-min Rain = 0
KMC4 191841Z 33013KT 13/M03 A3036 RMK A01 T01271030  RH  033%=      5-min Rain = 0
KMC4 191842Z 33011KT 13/M03 A3036 RMK A01 T01281031  RH  033%=      5-min Rain = 0
KMC4 191843Z 34009KT 13/M03 A3036 RMK A01 T01271033  RH  033%=      5-min Rain = 0
KMC4 191844Z 33009KT 13/M03 A3036 RMK A01 T01261032  RH  033%=      5-min Rain = 0
KMC4 191845Z 33010G16KT 13/M03 A3036 RMK A01 T01271031  RH  033%=      5-min Rain = 0
KMC4 191846Z 33015KT 13/M03 A3036 RMK A01 T01281031  RH  033%=      5-min Rain = 0
KMC4 191847Z 33013KT 13/M03 A3036 RMK A01 T01281033  RH  033%=      5-min Rain = 0
KMC4 191848Z 35011KT 13/M03 A3035 RMK A01 T01271032  RH  033%=      5-min Rain = 0
KMC4 191849Z 35013KT 13/M03 A3035 RMK A01 T01261034  RH  033%=      5-min Rain = 0
KMC4 191850Z 35010KT 12/M04 A3036 RMK A01 T01241036  RH  033%=      5-min Rain = 0
KMC4 191851Z 34011KT 12/M04 A3035 RMK A01 T01231035  RH  033%=      5-min Rain = 0
KMC4 191852Z 32012KT 12/M03 A3035 RMK A01 T01231032  RH  034%=      5-min Rain = 0
KMC4 191853Z 33012G19KT 13/M03 A3035 RMK A01 T01261031  RH  033%=      5-min Rain = 0
KMC4 191854Z 34016KT 13/M03 A3035 RMK A01 T01291031  RH  033%=      5-min Rain = 0
KMC4 191855Z 32013KT 13/M03 A3035 RMK A01 T01281033  RH  032%=      5-min Rain = 0
KMC4 191856Z 33013KT 13/M03 A3035 RMK A01 T01281031  RH  033%=      5-min Rain = 0
KMC4 191857Z 33011KT 13/M03 A3035 RMK A01 T01291031  RH  033%=      5-min Rain = 0
KMC4 191858Z 33009KT 13/M03 A3035 RMK A01 T01301031  RH  033%=      5-min Rain = 0
KMC4 191859Z 34010KT 13/M03 A3035 RMK A01 T01291032  RH  032%=      5-min Rain = 0
KMC4 191900Z 33011KT 13/M03 A3035 RMK A01 T01291034  RH  032%=      5-min Rain = 0
KMC4 191901Z 34009KT 13/M03 A3035 RMK A01 T01291032  RH  032%=      5-min Rain = 0
KMC4 191902Z 36008KT 13/M04 A3035 RMK A01 T01271035  RH  032%=      5-min Rain = 0
KMC4 191903Z 34009KT 13/M03 A3035 RMK A01 T01261034  RH  033%=      5-min Rain = 0
KMC4 191904Z 35012G17KT 13/M04 A3035 RMK A01 T01261035  RH  032%=      5-min Rain = 0
KMC4 191905Z 34014KT 13/M03 A3035 RMK A01 T01271034  RH  032%=      5-min Rain = 0
KMC4 191906Z 34013KT 13/M04 A3035 RMK A01 T01271036  RH  032%=      5-min Rain = 0
KMC4 191907Z 34012KT 13/M04 A3035 RMK A01 T01261036  RH  032%=      5-min Rain = 0
KMC4 191908Z 34011KT 13/M04 A3035 RMK A01 T01261036  RH  032%=      5-min Rain = 0
KMC4 191909Z 34012KT 13/M04 A3035 RMK A01 T01261035  RH  032%=      5-min Rain = 0
KMC4 191910Z 33013KT 13/M04 A3035 RMK A01 T01261035  RH  032%=      5-min Rain = 0
KMC4 191911Z 34014KT 13/M04 A3035 RMK A01 T01271035  RH  032%=      5-min Rain = 0
KMC4 191912Z 33014KT 13/M04 A3035 RMK A01 T01271035  RH  032%=      5-min Rain = 0
KMC4 191913Z 33012KT 13/M03 A3035 RMK A01 T01281034  RH  032%=      5-min Rain = 0
KMC4 191914Z 34009KT 13/M03 A3035 RMK A01 T01281032  RH  033%=      5-min Rain = 0
KMC4 191915Z 34010KT 13/M03 A3035 RMK A01 T01291032  RH  032%=      5-min Rain = 0
KMC4 191916Z 33013KT 13/M03 A3034 RMK A01 T01301034  RH  032%=      5-min Rain = 0
KMC4 191917Z 33012KT 13/M03 A3034 RMK A01 T01301033  RH  032%=      5-min Rain = 0
KMC4 191918Z 34011KT 13/M03 A3034 RMK A01 T01301032  RH  032%=      5-min Rain = 0
KMC4 191919Z 33008KT 13/M03 A3034 RMK A01 T01301032  RH  032%=      5-min Rain = 0
KMC4 191920Z 31008KT 13/M03 A3034 RMK A01 T01311029  RH  033%=      5-min Rain = 0
KMC4 191921Z 31008KT 13/M03 A3034 RMK A01 T01321031  RH  032%=      5-min Rain = 0
KMC4 191922Z 32008KT 13/M03 A3034 RMK A01 T01321031  RH  032%=      5-min Rain = 0
KMC4 191923Z 34008KT 13/M03 A3034 RMK A01 T01321031  RH  032%=      5-min Rain = 0
KMC4 191924Z 34011KT 13/M03 A3034 RMK A01 T01311033  RH  032%=      5-min Rain = 0
KMC4 191925Z 35012KT 13/M03 A3034 RMK A01 T01311033  RH  032%=      5-min Rain = 0
KMC4 191926Z 36010KT 13/M03 A3034 RMK A01 T01301033  RH  032%=      5-min Rain = 0
KMC4 191927Z 34010KT 13/M04 A3034 RMK A01 T01281035  RH  032%=      5-min Rain = 0
KMC4 191928Z 33010KT 13/M03 A3034 RMK A01 T01291030  RH  033%=      5-min Rain = 0
KMC4 191929Z 33009G14KT 13/M03 A3034 RMK A01 T01311028  RH  033%=      5-min Rain = 0
KMC4 191930Z 34012KT 13/M03 A3034 RMK A01 T01331031  RH  032%=      5-min Rain = 0
KMC4 191931Z 35010KT 13/M03 A3034 RMK A01 T01321033  RH  032%=      5-min Rain = 0
KMC4 191932Z 35008KT 13/M03 A3034 RMK A01 T01311033  RH  032%=      5-min Rain = 0
KMC4 191933Z 35008KT 13/M03 A3033 RMK A01 T01311033  RH  032%=      5-min Rain = 0
KMC4 191934Z 34009KT 13/M03 A3033 RMK A01 T01301034  RH  032%=      5-min Rain = 0
KMC4 191935Z 35011KT 13/M03 A3033 RMK A01 T01311031  RH  032%=      5-min Rain = 0
KMC4 191936Z 35013KT 13/M03 A3033 RMK A01 T01341033  RH  031%=      5-min Rain = 0
KMC4 191937Z 34012KT 13/M04 A3033 RMK A01 T01341035  RH  031%=      5-min Rain = 0
KMC4 191938Z 34011KT 13/M03 A3033 RMK A01 T01331034  RH  031%=      5-min Rain = 0
KMC4 191939Z 34009KT 13/M03 A3033 RMK A01 T01321034  RH  031%=      5-min Rain = 0
KMC4 191940Z 34010KT 13/M04 A3033 RMK A01 T01321035  RH  031%=      5-min Rain = 0
KMC4 191941Z 34010KT 13/M03 A3033 RMK A01 T01311033  RH  032%=      5-min Rain = 0
KMC4 191942Z 32008KT 13/M03 A3033 RMK A01 T01321031  RH  032%=      5-min Rain = 0
KMC4 191943Z 34009KT 13/M03 A3033 RMK A01 T01341030  RH  032%=      5-min Rain = 0
KMC4 191944Z 33010KT 14/M03 A3033 RMK A01 T01351030  RH  032%=      5-min Rain = 0
KMC4 191945Z 33009KT 14/M03 A3033 RMK A01 T01351030  RH  032%=      5-min Rain = 0
KMC4 191946Z 35006KT 14/M03 A3033 RMK A01 T01351031  RH  031%=      5-min Rain = 0
KMC4 191947Z 35005KT 13/M03 A3033 RMK A01 T01341034  RH  031%=      5-min Rain = 0
KMC4 191948Z 35006KT 13/M03 A3033 RMK A01 T01321034  RH  031%=      5-min Rain = 0
KMC4 191949Z 32008KT 13/M03 A3033 RMK A01 T01321031  RH  032%=      5-min Rain = 0
KMC4 191950Z 32010KT 13/M03 A3032 RMK A01 T01341030  RH  032%=      5-min Rain = 0
KMC4 191951Z 33010KT 13/M03 A3032 RMK A01 T01341032  RH  031%=      5-min Rain = 0
KMC4 191952Z 33009KT 13/M03 A3032 RMK A01 T01341030  RH  032%=      5-min Rain = 0
KMC4 191953Z 32009KT 14/M03 A3032 RMK A01 T01351031  RH  032%=      5-min Rain = 0
KMC4 191954Z 33010KT 14/M03 A3032 RMK A01 T01361030  RH  032%=      5-min Rain = 0
KMC4 191955Z 34007KT 14/M03 A3032 RMK A01 T01371031  RH  031%=      5-min Rain = 0
KMC4 191956Z 33012KT 14/M03 A3032 RMK A01 T01381029  RH  031%=      5-min Rain = 0
KMC4 191957Z 33014KT 14/M03 A3032 RMK A01 T01391033  RH  030%=      5-min Rain = 0
KMC4 191958Z 32013KT 14/M03 A3032 RMK A01 T01371033  RH  030%=      5-min Rain = 0
KMC4 191959Z 31012KT 14/M03 A3032 RMK A01 T01361033  RH  031%=      5-min Rain = 0
KMC4 192000Z 31010KT 14/M03 A3032 RMK A01 T01361032  RH  031%=      5-min Rain = 0
KMC4 192001Z 32011KT 14/M03 A3032 RMK A01 T01361032  RH  031%=      5-min Rain = 0
KMC4 192002Z 30010KT 14/M03 A3032 RMK A01 T01361032  RH  031%=      5-min Rain = 0
KMC4 192003Z 29010KT 14/M03 A3032 RMK A01 T01361033  RH  031%=      5-min Rain = 0
KMC4 192004Z 29009KT 14/M03 A3032 RMK A01 T01361032  RH  031%=      5-min Rain = 0
KMC4 192005Z 30010KT 14/M03 A3032 RMK A01 T01361032  RH  031%=      5-min Rain = 0
KMC4 192006Z 28009KT 14/M03 A3031 RMK A01 T01361033  RH  031%=      5-min Rain = 0
KMC4 192007Z 29009KT 14/M03 A3032 RMK A01 T01361031  RH  031%=      5-min Rain = 0
KMC4 192008Z 30007KT 14/M03 A3032 RMK A01 T01361034  RH  031%=      5-min Rain = 0
KMC4 192009Z 31005KT 13/M03 A3032 RMK A01 T01341033  RH  031%=      5-min Rain = 0
KMC4 192010Z 32008KT 13/M03 A3032 RMK A01 T01341033  RH  031%=      5-min Rain = 0
KMC4 192011Z 32010KT 14/M03 A3032 RMK A01 T01351031  RH  031%=      5-min Rain = 0
KMC4 192012Z 34012KT 14/M03 A3031 RMK A01 T01371033  RH  031%=      5-min Rain = 0
KMC4 192013Z 33011KT 14/M03 A3031 RMK A01 T01361033  RH  031%=      5-min Rain = 0
KMC4 192014Z 33009KT 14/M03 A3031 RMK A01 T01371032  RH  031%=      5-min Rain = 0
KMC4 192015Z 33009KT 14/M03 A3031 RMK A01 T01381032  RH  031%=      5-min Rain = 0
KMC4 192016Z 34010KT 14/M03 A3031 RMK A01 T01391031  RH  031%=      5-min Rain = 0
KMC4 192017Z 34008KT 14/M03 A3031 RMK A01 T01381033  RH  030%=      5-min Rain = 0
KMC4 192018Z 34008KT 14/M03 A3031 RMK A01 T01381033  RH  030%=      5-min Rain = 0
KMC4 192019Z 35006KT 14/M03 A3031 RMK A01 T01371034  RH  030%=      5-min Rain = 0
KMC4 192020Z 35007G12KT 14/M03 A3031 RMK A01 T01361034  RH  031%=      5-min Rain = 0
KMC4 192021Z 01010KT 14/M03 A3031 RMK A01 T01361032  RH  031%=      5-min Rain = 0
KMC4 192022Z 35007KT 14/M03 A3031 RMK A01 T01381031  RH  031%=      5-min Rain = 0
KMC4 192023Z 35008KT 14/M03 A3031 RMK A01 T01401031  RH  030%=      5-min Rain = 0
KMC4 192024Z 32009KT 14/M03 A303 RMK A01 T01411030  RH  030%=      5-min Rain = 0
KMC4 192025Z 33009KT 14/M03 A303 RMK A01 T01401032  RH  030%=      5-min Rain = 0
KMC4 192026Z 36008KT 14/M03 A303 RMK A01 T01401032  RH  030%=      5-min Rain = 0
KMC4 192027Z 33005KT 14/M04 A303 RMK A01 T01401035  RH  030%=      5-min Rain = 0
KMC4 192028Z 31007KT 14/M03 A303 RMK A01 T01401032  RH  030%=      5-min Rain = 0
KMC4 192029Z 30005KT 14/M03 A303 RMK A01 T01401030  RH  031%=      5-min Rain = 0
KMC4 192030Z 33007KT 14/M03 A303 RMK A01 T01421026  RH  031%=      5-min Rain = 0
KMC4 192031Z 33011KT 15/M03 A303 RMK A01 T01451029  RH  030%=      5-min Rain = 0
KMC4 192032Z 34011KT 14/M03 A303 RMK A01 T01441030  RH  030%=      5-min Rain = 0
KMC4 192033Z 34011KT 14/M03 A303 RMK A01 T01431033  RH  029%=      5-min Rain = 0
KMC4 192034Z 34006KT 14/M04 A303 RMK A01 T01401035  RH  030%=      5-min Rain = 0
KMC4 192035Z 32011KT 14/M03 A303 RMK A01 T01391033  RH  030%=      5-min Rain = 0
KMC4 192036Z 34010KT 14/M03 A303 RMK A01 T01401031  RH  031%=      5-min Rain = 0
KMC4 192037Z 33006KT 14/M03 A303 RMK A01 T01421030  RH  030%=      5-min Rain = 0
KMC4 192038Z 35009KT 14/M03 A303 RMK A01 T01431030  RH  030%=      5-min Rain = 0
KMC4 192039Z 31009KT 14/M03 A3029 RMK A01 T01441031  RH  030%=      5-min Rain = 0
KMC4 192040Z 33013KT 14/M03 A3029 RMK A01 T01441029  RH  030%=      5-min Rain = 0
KMC4 192041Z 34011KT 14/M03 A3029 RMK A01 T01441030  RH  030%=      5-min Rain = 0
KMC4 192042Z 34010KT 14/M03 A303 RMK A01 T01431031  RH  030%=      5-min Rain = 0
KMC4 192043Z 01009KT 14/M03 A3029 RMK A01 T01421033  RH  030%=      5-min Rain = 0
KMC4 192044Z 35008KT 14/M03 A303 RMK A01 T01411034  RH  029%=      5-min Rain = 0
KMC4 192045Z 33007KT 14/M03 A303 RMK A01 T01411033  RH  030%=      5-min Rain = 0
KMC4 192046Z 29008KT 14/M03 A303 RMK A01 T01431028  RH  031%=      5-min Rain = 0
KMC4 192047Z 29009KT 14/M03 A3029 RMK A01 T01441032  RH  029%=      5-min Rain = 0
KMC4 192048Z 30009KT 15/M03 A3029 RMK A01 T01461029  RH  030%=      5-min Rain = 0
KMC4 192049Z 32013KT 15/M03 A3029 RMK A01 T01481030  RH  029%=      5-min Rain = 0
KMC4 192050Z 33009KT 15/M03 A303 RMK A01 T01471032  RH  029%=      5-min Rain = 0
KMC4 192051Z 31010KT 15/M03 A303 RMK A01 T01461031  RH  029%=      5-min Rain = 0
KMC4 192052Z 32008KT 15/M03 A303 RMK A01 T01461030  RH  030%=      5-min Rain = 0
KMC4 192053Z 33009KT 15/M03 A303 RMK A01 T01481029  RH  029%=      5-min Rain = 0
KMC4 192054Z 34008KT 15/M03 A303 RMK A01 T01481030  RH  029%=      5-min Rain = 0
KMC4 192055Z 32007KT 15/M03 A303 RMK A01 T01481032  RH  029%=      5-min Rain = 0
KMC4 192056Z 32010KT 15/M03 A303 RMK A01 T01471031  RH  029%=      5-min Rain = 0
KMC4 192057Z 32011KT 15/M03 A303 RMK A01 T01471030  RH  029%=      5-min Rain = 0
KMC4 192058Z 32010KT 15/M03 A303 RMK A01 T01471031  RH  029%=      5-min Rain = 0
KMC4 192059Z 33006KT 15/M03 A303 RMK A01 T01471031  RH  029%=      5-min Rain = 0
KMC4 192100Z 35005KT 15/M03 A303 RMK A01 T01481029  RH  029%=      5-min Rain = 0
KMC4 192101Z 34007KT 15/M03 A303 RMK A01 T01501030  RH  029%=      5-min Rain = 0
KMC4 192102Z 32010KT 15/M03 A303 RMK A01 T01511028  RH  029%=      5-min Rain = 0
KMC4 192103Z 32012KT 15/M03 A303 RMK A01 T01501032  RH  028%=      5-min Rain = 0
KMC4 192104Z 32010KT 15/M03 A303 RMK A01 T01491034  RH  028%=      5-min Rain = 0
KMC4 192105Z 32011KT 15/M03 A303 RMK A01 T01481031  RH  029%=      5-min Rain = 0
KMC4 192106Z 33011KT 15/M03 A303 RMK A01 T01481033  RH  028%=      5-min Rain = 0
KMC4 192107Z 31010KT 15/M03 A303 RMK A01 T01471033  RH  029%=      5-min Rain = 0
KMC4 192108Z 31009KT 15/M03 A303 RMK A01 T01471033  RH  029%=      5-min Rain = 0
KMC4 192109Z 32008KT 15/M03 A3029 RMK A01 T01461033  RH  029%=      5-min Rain = 0
KMC4 192110Z 31009KT 15/M03 A3029 RMK A01 T01471030  RH  029%=      5-min Rain = 0
KMC4 192111Z 30010KT 15/M03 A3029 RMK A01 T01481031  RH  029%=      5-min Rain = 0
KMC4 192112Z 30010KT 15/M03 A3029 RMK A01 T01491031  RH  029%=      5-min Rain = 0
KMC4 192113Z 30009KT 15/M04 A3029 RMK A01 T01481035  RH  028%=      5-min Rain = 0
KMC4 192114Z 31009KT 15/M03 A3029 RMK A01 T01461033  RH  029%=      5-min Rain = 0
KMC4 192115Z 32009KT 15/M03 A3029 RMK A01 T01471031  RH  029%=      5-min Rain = 0
KMC4 192116Z 31008KT 15/M03 A3029 RMK A01 T01471032  RH  029%=      5-min Rain = 0
KMC4 192117Z 29007KT 15/M03 A3029 RMK A01 T01471033  RH  029%=      5-min Rain = 0
KMC4 192118Z 29008KT 15/M03 A3029 RMK A01 T01481028  RH  029%=      5-min Rain = 0
KMC4 192119Z 29006KT 15/M03 A3029 RMK A01 T01491032  RH  029%=      5-min Rain = 0
KMC4 192120Z 30006KT 15/M03 A3029 RMK A01 T01491031  RH  029%=      5-min Rain = 0
KMC4 192121Z 30010KT 15/M03 A3029 RMK A01 T01491030  RH  029%=      5-min Rain = 0
KMC4 192122Z 31011KT 15/M03 A3029 RMK A01 T01501029  RH  029%=      5-min Rain = 0
KMC4 192123Z 30010KT 15/M03 A3029 RMK A01 T01521030  RH  029%=      5-min Rain = 0
KMC4 192124Z 31009KT 15/M03 A3029 RMK A01 T01511031  RH  028%=      5-min Rain = 0
KMC4 192125Z 31006KT 15/M03 A3029 RMK A01 T01501030  RH  029%=      5-min Rain = 0
KMC4 192126Z 28004KT 15/M03 A3029 RMK A01 T01501031  RH  029%=      5-min Rain = 0
KMC4 192127Z 32005KT 15/M03 A3029 RMK A01 T01491033  RH  028%=      5-min Rain = 0
KMC4 192128Z 32005KT 15/M03 A3029 RMK A01 T01491029  RH  029%=      5-min Rain = 0
KMC4 192129Z 32009KT 15/M03 A3029 RMK A01 T01501027  RH  029%=      5-min Rain = 0
KMC4 192130Z 33009KT 15/M03 A3029 RMK A01 T01521030  RH  028%=      5-min Rain = 0
KMC4 192131Z 32007KT 15/M03 A3028 RMK A01 T01511029  RH  029%=      5-min Rain = 0
KMC4 192132Z 31009KT 15/M03 A3028 RMK A01 T01511027  RH  029%=      5-min Rain = 0
KMC4 192133Z 32006KT 15/M03 A3028 RMK A01 T01521029  RH  029%=      5-min Rain = 0
KMC4 192134Z 31005KT 15/M03 A3028 RMK A01 T01521030  RH  028%=      5-min Rain = 0
KMC4 192135Z 31005KT 15/M03 A3028 RMK A01 T01521029  RH  029%=      5-min Rain = 0
KMC4 192136Z 30005KT 15/M03 A3028 RMK A01 T01521031  RH  028%=      5-min Rain = 0
KMC4 192137Z 33006KT 15/M03 A3028 RMK A01 T01521029  RH  029%=      5-min Rain = 0
KMC4 192138Z 33008KT 15/M03 A3028 RMK A01 T01531029  RH  028%=      5-min Rain = 0
KMC4 192139Z 32009KT 15/M03 A3028 RMK A01 T01531031  RH  028%=      5-min Rain = 0
KMC4 192140Z 33010KT 15/M03 A3028 RMK A01 T01521031  RH  028%=      5-min Rain = 0
KMC4 192141Z 34012KT 15/M03 A3028 RMK A01 T01521031  RH  028%=      5-min Rain = 0
KMC4 192142Z 32011KT 15/M03 A3028 RMK A01 T01521033  RH  028%=      5-min Rain = 0
KMC4 192143Z 32010KT 15/M03 A3028 RMK A01 T01531030  RH  028%=      5-min Rain = 0
KMC4 192144Z 32010KT 16/M03 A3028 RMK A01 T01551029  RH  028%=      5-min Rain = 0
KMC4 192145Z 31007KT 16/M03 A3028 RMK A01 T01551029  RH  028%=      5-min Rain = 0
KMC4 192146Z 32007KT 16/M03 A3028 RMK A01 T01561027  RH  028%=      5-min Rain = 0
KMC4 192147Z 34006KT 16/M03 A3028 RMK A01 T01561030  RH  028%=      5-min Rain = 0
KMC4 192148Z 32005KT 16/M03 A3028 RMK A01 T01561030  RH  028%=      5-min Rain = 0
KMC4 192149Z 32007KT 16/M03 A3028 RMK A01 T01561029  RH  028%=      5-min Rain = 0
KMC4 192150Z 33006KT 16/M03 A3028 RMK A01 T01561030  RH  028%=      5-min Rain = 0
KMC4 192151Z 33009KT 16/M03 A3028 RMK A01 T01561030  RH  028%=      5-min Rain = 0
KMC4 192152Z 34010KT 15/M04 A3028 RMK A01 T01541035  RH  027%=      5-min Rain = 0
KMC4 192153Z 34012KT 15/M04 A3028 RMK A01 T01521036  RH  027%=      5-min Rain = 0
KMC4 192154Z 33012KT 15/M03 A3028 RMK A01 T01521033  RH  028%=      5-min Rain = 0
KMC4 192155Z 32012G17KT 15/M03 A3028 RMK A01 T01521032  RH  028%=      5-min Rain = 0
KMC4 192156Z 32010KT 15/M03 A3028 RMK A01 T01531032  RH  028%=      5-min Rain = 0
KMC4 192157Z 30008KT 15/M03 A3028 RMK A01 T01541034  RH  027%=      5-min Rain = 0
KMC4 192158Z 31012KT 15/M03 A3028 RMK A01 T01541033  RH  027%=      5-min Rain = 0
KMC4 192159Z 31009KT 15/M03 A3028 RMK A01 T01531034  RH  027%=      5-min Rain = 0
KMC4 192200Z 30007KT 15/M03 A3028 RMK A01 T01521034  RH  028%=      5-min Rain = 0
KMC4 192201Z 31007KT 15/M03 A3028 RMK A01 T01511034  RH  028%=      5-min Rain = 0
KMC4 192202Z 32007KT 15/M03 A3028 RMK A01 T01511032  RH  028%=      5-min Rain = 0
KMC4 192203Z 32008KT 15/M03 A3028 RMK A01 T01521031  RH  028%=      5-min Rain = 0
KMC4 192204Z 31010KT 15/M03 A3028 RMK A01 T01541031  RH  028%=      5-min Rain = 0
KMC4 192205Z 31008KT 15/M03 A3028 RMK A01 T01541032  RH  028%=      5-min Rain = 0
KMC4 192206Z 31009KT 15/M03 A3028 RMK A01 T01541032  RH  028%=      5-min Rain = 0
KMC4 192207Z 33007KT 15/M03 A3028 RMK A01 T01531033  RH  028%=      5-min Rain = 0
KMC4 192208Z 30005KT 15/M03 A3028 RMK A01 T01521033  RH  028%=      5-min Rain = 0
KMC4 192209Z 31005KT 15/M03 A3027 RMK A01 T01521034  RH  028%=      5-min Rain = 0
KMC4 192210Z 34008KT 15/M03 A3027 RMK A01 T01511034  RH  028%=      5-min Rain = 0
KMC4 192211Z 33009G15KT 15/M03 A3027 RMK A01 T01521030  RH  028%=      5-min Rain = 0
KMC4 192212Z 32011KT 15/M03 A3027 RMK A01 T01541034  RH  027%=      5-min Rain = 0
KMC4 192213Z 31007KT 15/M04 A3027 RMK A01 T01541035  RH  027%=      5-min Rain = 0
KMC4 192214Z 30009KT 16/M03 A3027 RMK A01 T01551033  RH  027%=      5-min Rain = 0
KMC4 192215Z 31013KT 16/M03 A3027 RMK A01 T01561034  RH  027%=      5-min Rain = 0
KMC4 192216Z 30013KT 16/M04 A3027 RMK A01 T01551037  RH  027%=      5-min Rain = 0
KMC4 192217Z 31009KT 15/M04 A3027 RMK A01 T01531037  RH  027%=      5-min Rain = 0
KMC4 192218Z 31008KT 15/M04 A3027 RMK A01 T01531036  RH  027%=      5-min Rain = 0
KMC4 192219Z 30011KT 15/M03 A3027 RMK A01 T01541034  RH  027%=      5-min Rain = 0
KMC4 192220Z 31010KT 15/M04 A3027 RMK A01 T01541037  RH  027%=      5-min Rain = 0
KMC4 192221Z 31010KT 15/M04 A3027 RMK A01 T01531036  RH  027%=      5-min Rain = 0
KMC4 192222Z 31010KT 15/M04 A3027 RMK A01 T01531035  RH  027%=      5-min Rain = 0
KMC4 192223Z 30011KT 15/M04 A3027 RMK A01 T01531036  RH  027%=      5-min Rain = 0
KMC4 192224Z 30010KT 15/M04 A3027 RMK A01 T01521037  RH  027%=      5-min Rain = 0
KMC4 192225Z 29009KT 15/M04 A3027 RMK A01 T01521035  RH  027%=      5-min Rain = 0
KMC4 192226Z 31011KT 15/M03 A3027 RMK A01 T01531034  RH  027%=      5-min Rain = 0
KMC4 192227Z 29011KT 15/M03 A3027 RMK A01 T01531034  RH  027%=      5-min Rain = 0
KMC4 192228Z 28012KT 15/M04 A3027 RMK A01 T01531036  RH  027%=      5-min Rain = 0
KMC4 192229Z 27010KT 15/M04 A3027 RMK A01 T01521037  RH  027%=      5-min Rain = 0
KMC4 192230Z 27011KT 15/M04 A3027 RMK A01 T01511036  RH  027%=      5-min Rain = 0
KMC4 192231Z 27010KT 15/M04 A3027 RMK A01 T01511035  RH  027%=      5-min Rain = 0
KMC4 192232Z 27011KT 15/M04 A3027 RMK A01 T01521035  RH  027%=      5-min Rain = 0
KMC4 192233Z 27010KT 15/M04 A3027 RMK A01 T01521037  RH  027%=      5-min Rain = 0
KMC4 192234Z 28010KT 15/M04 A3027 RMK A01 T01511036  RH  027%=      5-min Rain = 0
KMC4 192235Z 29008KT 15/M03 A3027 RMK A01 T01521034  RH  028%=      5-min Rain = 0
KMC4 192236Z 30007KT 15/M04 A3027 RMK A01 T01531036  RH  027%=      5-min Rain = 0
KMC4 192237Z 31008KT 15/M04 A3027 RMK A01 T01531035  RH  027%=      5-min Rain = 0
KMC4 192238Z 31008KT 15/M03 A3027 RMK A01 T01531033  RH  028%=      5-min Rain = 0
KMC4 192239Z 32008KT 15/M03 A3027 RMK A01 T01531034  RH  027%=      5-min Rain = 0
KMC4 192240Z 32009KT 15/M03 A3027 RMK A01 T01531034  RH  027%=      5-min Rain = 0
KMC4 192241Z 32008KT 15/M03 A3027 RMK A01 T01531034  RH  027%=      5-min Rain = 0
KMC4 192242Z 31008KT 15/M03 A3027 RMK A01 T01531034  RH  027%=      5-min Rain = 0
KMC4 192243Z 31008KT 15/M03 A3027 RMK A01 T01531034  RH  027%=      5-min Rain = 0
KMC4 192244Z 34009KT 15/M04 A3027 RMK A01 T01541035  RH  027%=      5-min Rain = 0
KMC4 192245Z 34009KT 15/M04 A3027 RMK A01 T01541039  RH  026%=      5-min Rain = 0
KMC4 192246Z 34008KT 15/M04 A3027 RMK A01 T01531040  RH  026%=      5-min Rain = 0
KMC4 192247Z 34009KT 15/M04 A3027 RMK A01 T01521039  RH  027%=      5-min Rain = 0
KMC4 192248Z 31007KT 15/M04 A3027 RMK A01 T01521039  RH  027%=      5-min Rain = 0
KMC4 192249Z 30007KT 15/M04 A3027 RMK A01 T01521038  RH  027%=      5-min Rain = 0
KMC4 192250Z 33008KT 15/M04 A3027 RMK A01 T01531037  RH  027%=      5-min Rain = 0
KMC4 192251Z 32006KT 15/M04 A3027 RMK A01 T01521039  RH  027%=      5-min Rain = 0
KMC4 192252Z 30005KT 15/M04 A3027 RMK A01 T01521037  RH  027%=      5-min Rain = 0
KMC4 192253Z 30005KT 15/M04 A3028 RMK A01 T01531035  RH  027%=      5-min Rain = 0
KMC4 192254Z 30008KT 15/M04 A3028 RMK A01 T01541036  RH  027%=      5-min Rain = 0
KMC4 192255Z 29012KT 15/M04 A3027 RMK A01 T01541037  RH  027%=      5-min Rain = 0
KMC4 192256Z 30009KT 15/M04 A3027 RMK A01 T01531038  RH  027%=      5-min Rain = 0
KMC4 192257Z 29008KT 15/M04 A3028 RMK A01 T01531037  RH  027%=      5-min Rain = 0
KMC4 192258Z 29010KT 15/M04 A3027 RMK A01 T01521037  RH  027%=      5-min Rain = 0
KMC4 192259Z 28011KT 15/M04 A3027 RMK A01 T01521037  RH  027%=      5-min Rain = 0
KMC4 192300Z 29013KT 15/M04 A3027 RMK A01 T01531036  RH  027%=      5-min Rain = 0
KMC4 192301Z 29009KT 15/M04 A3028 RMK A01 T01521038  RH  027%=      5-min Rain = 0
KMC4 192302Z 30006KT 15/M04 A3028 RMK A01 T01521036  RH  027%=      5-min Rain = 0
KMC4 192303Z 32007KT 15/M04 A3028 RMK A01 T01521035  RH  027%=      5-min Rain = 0
KMC4 192304Z 30007KT 15/M04 A3028 RMK A01 T01521038  RH  027%=      5-min Rain = 0
KMC4 192305Z 29007G13KT 15/M04 A3028 RMK A01 T01521036  RH  027%=      5-min Rain = 0
KMC4 192306Z 29011KT 15/M04 A3027 RMK A01 T01521037  RH  027%=      5-min Rain = 0
KMC4 192307Z 29011KT 15/M04 A3027 RMK A01 T01521038  RH  027%=      5-min Rain = 0
KMC4 192308Z 29010KT 15/M04 A3028 RMK A01 T01521038  RH  027%=      5-min Rain = 0
KMC4 192309Z 29011KT 15/M04 A3027 RMK A01 T01521038  RH  027%=      5-min Rain = 0
KMC4 192310Z 30011KT 15/M04 A3028 RMK A01 T01511039  RH  027%=      5-min Rain = 0
KMC4 192311Z 31011KT 15/M04 A3028 RMK A01 T01511038  RH  027%=      5-min Rain = 0
KMC4 192312Z 31009KT 15/M04 A3028 RMK A01 T01511036  RH  027%=      5-min Rain = 0
KMC4 192313Z 31008KT 15/M04 A3028 RMK A01 T01511035  RH  027%=      5-min Rain = 0
KMC4 192314Z 32007KT 15/M04 A3028 RMK A01 T01521036  RH  027%=      5-min Rain = 0
KMC4 192315Z 31008KT 15/M04 A3027 RMK A01 T01521037  RH  027%=      5-min Rain = 0
KMC4 192316Z 31008KT 15/M04 A3027 RMK A01 T01521037  RH  027%=      5-min Rain = 0
KMC4 192317Z 33007KT 15/M04 A3027 RMK A01 T01521037  RH  027%=      5-min Rain = 0
KMC4 192318Z 31009KT 15/M04 A3027 RMK A01 T01511037  RH  027%=      5-min Rain = 0
KMC4 192319Z 32005KT 15/M04 A3027 RMK A01 T01511038  RH  027%=      5-min Rain = 0
KMC4 192320Z 32008KT 15/M04 A3027 RMK A01 T01511037  RH  027%=      5-min Rain = 0
KMC4 192321Z 31008KT 15/M04 A3027 RMK A01 T01511036  RH  027%=      5-min Rain = 0
KMC4 192322Z 30011KT 15/M04 A3027 RMK A01 T01511037  RH  027%=      5-min Rain = 0
KMC4 192323Z 31010KT 15/M04 A3027 RMK A01 T01501039  RH  027%=      5-min Rain = 0
KMC4 192324Z 30009KT 15/M04 A3027 RMK A01 T01501039  RH  027%=      5-min Rain = 0
KMC4 192325Z 30010KT 15/M04 A3027 RMK A01 T01491040  RH  027%=      5-min Rain = 0
KMC4 192326Z 30010KT 15/M04 A3027 RMK A01 T01491040  RH  027%=      5-min Rain = 0
KMC4 192327Z 30009KT 15/M04 A3027 RMK A01 T01491041  RH  027%=      5-min Rain = 0
KMC4 192328Z 30009KT 15/M04 A3027 RMK A01 T01491041  RH  027%=      5-min Rain = 0
KMC4 192329Z 30009KT 15/M04 A3027 RMK A01 T01491040  RH  027%=      5-min Rain = 0
KMC4 192330Z 31008KT 15/M04 A3027 RMK A01 T01491039  RH  027%=      5-min Rain = 0
KMC4 192331Z 31008KT 15/M04 A3027 RMK A01 T01481038  RH  027%=      5-min Rain = 0
KMC4 192332Z 31007KT 15/M04 A3027 RMK A01 T01481038  RH  027%=      5-min Rain = 0
KMC4 192333Z 30007KT 15/M04 A3027 RMK A01 T01481039  RH  027%=      5-min Rain = 0
KMC4 192334Z 30008KT 15/M04 A3027 RMK A01 T01481039  RH  027%=      5-min Rain = 0
KMC4 192335Z 31008KT 15/M04 A3028 RMK A01 T01481040  RH  027%=      5-min Rain = 0
KMC4 192336Z 31009KT 15/M04 A3028 RMK A01 T01481038  RH  028%=      5-min Rain = 0
KMC4 192337Z 30008KT 15/M04 A3028 RMK A01 T01481037  RH  028%=      5-min Rain = 0
KMC4 192338Z 30007KT 15/M04 A3028 RMK A01 T01471036  RH  028%=      5-min Rain = 0
KMC4 192339Z 30006KT 15/M04 A3028 RMK A01 T01471035  RH  028%=      5-min Rain = 0
KMC4 192340Z 30009KT 15/M04 A3028 RMK A01 T01471035  RH  028%=      5-min Rain = 0
KMC4 192341Z 30009KT 15/M04 A3028 RMK A01 T01471038  RH  028%=      5-min Rain = 0
KMC4 192342Z 30008KT 15/M04 A3028 RMK A01 T01471038  RH  028%=      5-min Rain = 0
KMC4 192343Z 30008KT 15/M04 A3028 RMK A01 T01461037  RH  028%=      5-min Rain = 0
KMC4 192344Z 30010KT 15/M04 A3028 RMK A01 T01451038  RH  028%=      5-min Rain = 0
KMC4 192345Z 31008KT 15/M04 A3028 RMK A01 T01451038  RH  028%=      5-min Rain = 0
KMC4 192346Z 31008KT 15/M04 A3028 RMK A01 T01451038  RH  028%=      5-min Rain = 0
KMC4 192347Z 30009KT 14/M04 A3028 RMK A01 T01441037  RH  028%=      5-min Rain = 0
KMC4 192348Z 30009KT 14/M04 A3028 RMK A01 T01441038  RH  028%=      5-min Rain = 0
KMC4 192349Z 30009KT 14/M04 A3028 RMK A01 T01431037  RH  028%=      5-min Rain = 0
KMC4 192350Z 30010KT 14/M04 A3028 RMK A01 T01431037  RH  029%=      5-min Rain = 0
KMC4 192351Z 30010KT 14/M04 A3027 RMK A01 T01431037  RH  029%=      5-min Rain = 0
KMC4 192352Z 30007KT 14/M04 A3028 RMK A01 T01431037  RH  029%=      5-min Rain = 0
KMC4 192353Z 30009KT 14/M04 A3028 RMK A01 T01421037  RH  029%=      5-min Rain = 0
KMC4 192354Z 30009KT 14/M04 A3028 RMK A01 T01421038  RH  029%=      5-min Rain = 0
KMC4 192355Z 30008KT 14/M04 A3028 RMK A01 T01421038  RH  029%=      5-min Rain = 0
KMC4 192356Z 30007KT 14/M04 A3028 RMK A01 T01421038  RH  029%=      5-min Rain = 0
KMC4 192357Z 30007KT 14/M04 A3028 RMK A01 T01411037  RH  029%=      5-min Rain = 0
KMC4 192358Z 30006KT 14/M04 A3028 RMK A01 T01411037  RH  029%=      5-min Rain = 0
KMC4 192359Z 30006KT 14/M04 A3028 RMK A01 T01401037  RH  029%=      5-min Rain = 0
KMC4 200000Z 30006KT 14/M04 A3028 RMK A01 T01391037  RH  029%=      5-min Rain = 0
KMC4 200001Z 30006KT 14/M04 A3028 RMK A01 T01381037  RH  029%=      5-min Rain = 0
KMC4 200002Z 30006KT 14/M04 A3028 RMK A01 T01391037  RH  029%=      5-min Rain = 0
KMC4 200003Z 30006KT 14/M04 A3028 RMK A01 T01381036  RH  030%=      5-min Rain = 0
KMC4 200004Z 29006KT 14/M04 A3028 RMK A01 T01381036  RH  030%=      5-min Rain = 0
KMC4 200005Z 29006KT 14/M04 A3028 RMK A01 T01371036  RH  030%=      5-min Rain = 0
KMC4 200006Z 29006KT 14/M04 A3028 RMK A01 T01371035  RH  030%=      5-min Rain = 0
KMC4 200007Z 29006KT 14/M04 A3028 RMK A01 T01361035  RH  030%=      5-min Rain = 0
KMC4 200008Z 29006KT 14/M04 A3028 RMK A01 T01351035  RH  031%=      5-min Rain = 0
KMC4 200009Z 29006KT 14/M04 A3028 RMK A01 T01351035  RH  031%=      5-min Rain = 0
KMC4 200010Z 29006KT 13/M03 A3028 RMK A01 T01341034  RH  031%=      5-min Rain = 0
KMC4 200011Z 29006KT 13/M03 A3028 RMK A01 T01341033  RH  031%=      5-min Rain = 0
KMC4 200012Z 29005KT 13/M03 A3028 RMK A01 T01331034  RH  031%=      5-min Rain = 0
KMC4 200013Z 29005KT 13/M03 A3028 RMK A01 T01321034  RH  031%=      5-min Rain = 0
KMC4 200014Z 30004KT 13/M03 A3028 RMK A01 T01311033  RH  032%=      5-min Rain = 0
KMC4 200015Z 29005KT 13/M03 A3028 RMK A01 T01291033  RH  032%=      5-min Rain = 0
KMC4 200016Z 30005KT 13/M03 A3028 RMK A01 T01291033  RH  032%=      5-min Rain = 0
KMC4 200017Z 30005KT 13/M03 A3028 RMK A01 T01281033  RH  032%=      5-min Rain = 0
KMC4 200018Z 30005KT 13/M03 A3028 RMK A01 T01271032  RH  033%=      5-min Rain = 0
KMC4 200019Z 30005KT 13/M03 A3028 RMK A01 T01261032  RH  033%=      5-min Rain = 0
KMC4 200020Z 30005KT 13/M03 A3028 RMK A01 T01261032  RH  033%=      5-min Rain = 0
KMC4 200021Z 29004KT 13/M03 A3028 RMK A01 T01251032  RH  033%=      5-min Rain = 0
KMC4 200022Z 29005KT 12/M03 A3028 RMK A01 T01241032  RH  034%=      5-min Rain = 0
KMC4 200023Z 29004KT 12/M03 A3028 RMK A01 T01231032  RH  034%=      5-min Rain = 0
KMC4 200024Z 30004KT 12/M03 A3028 RMK A01 T01231032  RH  034%=      5-min Rain = 0
KMC4 200025Z 30004KT 12/M03 A3028 RMK A01 T01221032  RH  034%=      5-min Rain = 0
KMC4 200026Z 30003KT 12/M03 A3028 RMK A01 T01211030  RH  035%=      5-min Rain = 0
KMC4 200027Z 30004KT 12/M03 A3028 RMK A01 T01201030  RH  035%=      5-min Rain = 0
KMC4 200028Z 29004KT 12/M03 A3028 RMK A01 T01201032  RH  035%=      5-min Rain = 0
KMC4 200029Z 29004KT 12/M03 A3028 RMK A01 T01201032  RH  035%=      5-min Rain = 0
KMC4 200030Z 30004KT 12/M03 A3028 RMK A01 T01191031  RH  035%=      5-min Rain = 0
KMC4 200031Z 30003KT 12/M03 A3028 RMK A01 T01191031  RH  035%=      5-min Rain = 0
KMC4 200032Z 30003KT 12/M03 A3028 RMK A01 T01181030  RH  036%=      5-min Rain = 0
KMC4 200033Z 29002KT 12/M03 A3028 RMK A01 T01171029  RH  036%=      5-min Rain = 0
KMC4 200034Z 29002KT 12/M03 A3028 RMK A01 T01161030  RH  036%=      5-min Rain = 0
KMC4 200035Z 29002KT 12/M03 A3028 RMK A01 T01161030  RH  036%=      5-min Rain = 0
KMC4 200036Z 28002KT 12/M03 A3028 RMK A01 T01151029  RH  036%=      5-min Rain = 0
KMC4 200037Z 26002KT 11/M03 A3028 RMK A01 T01141031  RH  036%=      5-min Rain = 0
KMC4 200038Z 27001KT 11/M03 A3028 RMK A01 T01141032  RH  036%=      5-min Rain = 0
KMC4 200039Z 28001KT 11/M03 A3028 RMK A01 T01141032  RH  036%=      5-min Rain = 0
KMC4 200040Z 27001KT 11/M03 A3028 RMK A01 T01131032  RH  036%=      5-min Rain = 0
KMC4 200041Z 24002KT 11/M03 A3028 RMK A01 T01131030  RH  036%=      5-min Rain = 0
KMC4 200042Z 26002KT 11/M03 A3028 RMK A01 T01121031  RH  037%=      5-min Rain = 0
KMC4 200043Z 24003KT 11/M03 A3028 RMK A01 T01121031  RH  037%=      5-min Rain = 0
KMC4 200044Z 25003KT 11/M03 A3028 RMK A01 T01111029  RH  037%=      5-min Rain = 0
KMC4 200045Z 26002KT 11/M03 A3028 RMK A01 T01101028  RH  038%=      5-min Rain = 0
KMC4 200046Z 25001KT 11/M03 A3028 RMK A01 T01091026  RH  039%=      5-min Rain = 0
KMC4 200047Z 27000KT 11/M03 A3028 RMK A01 T01071027  RH  039%=      5-min Rain = 0
KMC4 200048Z 28001KT 11/M03 A3028 RMK A01 T01061028  RH  039%=      5-min Rain = 0
KMC4 200049Z 28001KT 11/M03 A3028 RMK A01 T01061028  RH  039%=      5-min Rain = 0
KMC4 200050Z 27002KT 11/M03 A3028 RMK A01 T01051029  RH  039%=      5-min Rain = 0
KMC4 200051Z 27002KT 10/M03 A3028 RMK A01 T01041029  RH  039%=      5-min Rain = 0
KMC4 200052Z 27002KT 10/M03 A3028 RMK A01 T01041029  RH  039%=      5-min Rain = 0
KMC4 200053Z 27002KT 10/M03 A3028 RMK A01 T01041029  RH  039%=      5-min Rain = 0
KMC4 200054Z 27002KT 10/M03 A3028 RMK A01 T01041029  RH  039%=      5-min Rain = 0
KMC4 200055Z 26003KT 10/M03 A3028 RMK A01 T01041029  RH  039%=      5-min Rain = 0
KMC4 200056Z 26003KT 10/M03 A3028 RMK A01 T01041028  RH  040%=      5-min Rain = 0
KMC4 200057Z 25003KT 10/M03 A3028 RMK A01 T01041027  RH  040%=      5-min Rain = 0
KMC4 200058Z 26003KT 10/M03 A3028 RMK A01 T01041026  RH  040%=      5-min Rain = 0
KMC4 200059Z 26002KT 10/M03 A3028 RMK A01 T01041025  RH  040%=      5-min Rain = 0
KMC4 200100Z 26002KT 10/M02 A3028 RMK A01 T01031024  RH  041%=      5-min Rain = 0
KMC4 200101Z 26003KT 10/M03 A3028 RMK A01 T01021025  RH  041%=      5-min Rain = 0
KMC4 200102Z 26003KT 10/M03 A3028 RMK A01 T01021026  RH  041%=      5-min Rain = 0
KMC4 200103Z 26004KT 10/M03 A3028 RMK A01 T01011026  RH  041%=      5-min Rain = 0
KMC4 200104Z 26003KT 10/M03 A3028 RMK A01 T01011026  RH  041%=      5-min Rain = 0
KMC4 200105Z 26003KT 10/M03 A3028 RMK A01 T01011025  RH  041%=      5-min Rain = 0
KMC4 200106Z 26003KT 10/M03 A3028 RMK A01 T01011025  RH  041%=      5-min Rain = 0
KMC4 200107Z 26003KT 10/M03 A3028 RMK A01 T01001026  RH  041%=      5-min Rain = 0
KMC4 200108Z 26003KT 10/M03 A3028 RMK A01 T01001026  RH  041%=      5-min Rain = 0
KMC4 200109Z 26003KT 10/M03 A3028 RMK A01 T00991026  RH  042%=      5-min Rain = 0
KMC4 200110Z 26003KT 10/M03 A3028 RMK A01 T00981026  RH  042%=      5-min Rain = 0
KMC4 200111Z 26003KT 10/M03 A3028 RMK A01 T00981026  RH  042%=      5-min Rain = 0
KMC4 200112Z 27003KT 10/M03 A3029 RMK A01 T00971026  RH  042%=      5-min Rain = 0
KMC4 200113Z 27003KT 10/M03 A3029 RMK A01 T00971025  RH  042%=      5-min Rain = 0
KMC4 200114Z 27002KT 10/M03 A3029 RMK A01 T00971025  RH  042%=      5-min Rain = 0
KMC4 200115Z 28002KT 10/M03 A3029 RMK A01 T00961026  RH  042%=      5-min Rain = 0
KMC4 200116Z 28002KT 10/M03 A3029 RMK A01 T00961026  RH  042%=      5-min Rain = 0
KMC4 200117Z 27003KT 10/M03 A3029 RMK A01 T00961027  RH  042%=      5-min Rain = 0
KMC4 200118Z 27003KT 10/M03 A3029 RMK A01 T00971027  RH  042%=      5-min Rain = 0
KMC4 200119Z 28002KT 10/M03 A3029 RMK A01 T00971026  RH  042%=      5-min Rain = 0
KMC4 200120Z 27002KT 10/M03 A3029 RMK A01 T00971026  RH  042%=      5-min Rain = 0
KMC4 200121Z 28002KT 10/M03 A3029 RMK A01 T00971025  RH  042%=      5-min Rain = 0
KMC4 200122Z 28003KT 10/M03 A3029 RMK A01 T00971026  RH  042%=      5-min Rain = 0
KMC4 200123Z 28002KT 10/M03 A3029 RMK A01 T00961026  RH  042%=      5-min Rain = 0
KMC4 200124Z 29003KT 10/M03 A3029 RMK A01 T00961026  RH  042%=      5-min Rain = 0
KMC4 200125Z 29003KT 10/M03 A3029 RMK A01 T00961026  RH  042%=      5-min Rain = 0
KMC4 200126Z 29003KT 10/M03 A3029 RMK A01 T00951025  RH  043%=      5-min Rain = 0
KMC4 200127Z 30002KT 09/M02 A3029 RMK A01 T00941023  RH  044%=      5-min Rain = 0
KMC4 200128Z 30003KT 09/M02 A3029 RMK A01 T00931022  RH  045%=      5-min Rain = 0
KMC4 200129Z 30003KT 09/M02 A3029 RMK A01 T00921024  RH  044%=      5-min Rain = 0
KMC4 200130Z 30003KT 09/M02 A3029 RMK A01 T00921024  RH  044%=      5-min Rain = 0
KMC4 200131Z 30003KT 09/M02 A3029 RMK A01 T00911024  RH  044%=      5-min Rain = 0
KMC4 200132Z 29003KT 09/M02 A3029 RMK A01 T00921024  RH  044%=      5-min Rain = 0
KMC4 200133Z 29003KT 09/M02 A3029 RMK A01 T00921024  RH  044%=      5-min Rain = 0
KMC4 200134Z 29003KT 09/M02 A3029 RMK A01 T00921024  RH  044%=      5-min Rain = 0
KMC4 200135Z 29003KT 09/M02 A3029 RMK A01 T00921024  RH  044%=      5-min Rain = 0
KMC4 200136Z 29003KT 09/M02 A3029 RMK A01 T00911023  RH  045%=      5-min Rain = 0
KMC4 200137Z 29003KT 09/M02 A3029 RMK A01 T00911023  RH  045%=      5-min Rain = 0
KMC4 200138Z 30003KT 09/M02 A3029 RMK A01 T00911023  RH  045%=      5-min Rain = 0
KMC4 200139Z 30004KT 09/M02 A3029 RMK A01 T00911024  RH  045%=      5-min Rain = 0
KMC4 200140Z 30004KT 09/M02 A3029 RMK A01 T00911024  RH  044%=      5-min Rain = 0
KMC4 200141Z 31003KT 09/M02 A3029 RMK A01 T00921024  RH  044%=      5-min Rain = 0
KMC4 200142Z 32003KT 09/M03 A3029 RMK A01 T00921025  RH  044%=      5-min Rain = 0
KMC4 200143Z 32003KT 09/M02 A3029 RMK A01 T00921024  RH  044%=      5-min Rain = 0
KMC4 200144Z 33003KT 09/M03 A3029 RMK A01 T00931025  RH  044%=      5-min Rain = 0
KMC4 200145Z 33003KT 09/M03 A3029 RMK A01 T00931027  RH  043%=      5-min Rain = 0
KMC4 200146Z 34003KT 09/M03 A3029 RMK A01 T00941028  RH  042%=      5-min Rain = 0
KMC4 200147Z 32003KT 10/M03 A303 RMK A01 T00951029  RH  042%=      5-min Rain = 0
KMC4 200148Z 33003KT 10/M03 A303 RMK A01 T00961029  RH  041%=      5-min Rain = 0
KMC4 200149Z 33003KT 10/M03 A303 RMK A01 T00961027  RH  042%=      5-min Rain = 0
KMC4 200150Z 33003KT 10/M03 A303 RMK A01 T00951027  RH  042%=      5-min Rain = 0
KMC4 200151Z 33003KT 09/M03 A303 RMK A01 T00941027  RH  043%=      5-min Rain = 0
KMC4 200152Z 33003KT 09/M03 A303 RMK A01 T00921027  RH  043%=      5-min Rain = 0
KMC4 200153Z 33003KT 09/M03 A303 RMK A01 T00921028  RH  043%=      5-min Rain = 0
KMC4 200154Z 34003KT 09/M03 A303 RMK A01 T00921029  RH  043%=      5-min Rain = 0
KMC4 200155Z 34003KT 09/M03 A303 RMK A01 T00921028  RH  043%=      5-min Rain = 0
KMC4 200156Z 34002KT 09/M03 A303 RMK A01 T00921027  RH  043%=      5-min Rain = 0
KMC4 200157Z 33003KT 09/M03 A303 RMK A01 T00911026  RH  044%=      5-min Rain = 0
KMC4 200158Z 34002KT 09/M03 A303 RMK A01 T00901025  RH  044%=      5-min Rain = 0
KMC4 200159Z 34002KT 09/M02 A303 RMK A01 T00891024  RH  045%=      5-min Rain = 0
KMC4 200200Z 34002KT 09/M02 A303 RMK A01 T00881023  RH  046%=      5-min Rain = 0
KMC4 200201Z 33002KT 09/M02 A303 RMK A01 T00871023  RH  046%=      5-min Rain = 0
KMC4 200202Z 32002KT 09/M02 A303 RMK A01 T00861024  RH  046%=      5-min Rain = 0
KMC4 200203Z 33002KT 09/M03 A303 RMK A01 T00851025  RH  046%=      5-min Rain = 0
KMC4 200204Z 34002KT 09/M03 A303 RMK A01 T00861025  RH  046%=      5-min Rain = 0
KMC4 200205Z 35002KT 09/M02 A303 RMK A01 T00851024  RH  046%=      5-min Rain = 0
KMC4 200206Z 36002KT 09/M02 A303 RMK A01 T00851024  RH  046%=      5-min Rain = 0
KMC4 200207Z 00003KT 08/M02 A303 RMK A01 T00841024  RH  046%=      5-min Rain = 0
KMC4 200208Z 01003KT 08/M02 A303 RMK A01 T00831024  RH  047%=      5-min Rain = 0
KMC4 200209Z 01003KT 08/M02 A303 RMK A01 T00831024  RH  047%=      5-min Rain = 0
KMC4 200210Z 01003KT 08/M02 A303 RMK A01 T00831024  RH  047%=      5-min Rain = 0
KMC4 200211Z 01003KT 08/M03 A303 RMK A01 T00821025  RH  047%=      5-min Rain = 0
KMC4 200212Z 01003KT 08/M03 A303 RMK A01 T00811026  RH  047%=      5-min Rain = 0
KMC4 200213Z 01003KT 08/M03 A303 RMK A01 T00811027  RH  046%=      5-min Rain = 0
KMC4 200214Z 01003KT 08/M03 A3029 RMK A01 T00811027  RH  046%=      5-min Rain = 0
KMC4 200215Z 01003KT 08/M03 A3029 RMK A01 T00821028  RH  046%=      5-min Rain = 0
KMC4 200216Z 01003KT 08/M03 A3029 RMK A01 T00811028  RH  046%=      5-min Rain = 0
KMC4 200217Z 02004KT 08/M03 A3029 RMK A01 T00811027  RH  046%=      5-min Rain = 0
KMC4 200218Z 02004KT 08/M03 A3029 RMK A01 T00811027  RH  046%=      5-min Rain = 0
KMC4 200219Z 03004KT 08/M03 A3029 RMK A01 T00811028  RH  046%=      5-min Rain = 0
KMC4 200220Z 03004KT 08/M03 A3029 RMK A01 T00801029  RH  046%=      5-min Rain = 0
KMC4 200221Z 03004KT 08/M03 A3029 RMK A01 T00811029  RH  046%=      5-min Rain = 0
KMC4 200222Z 03004KT 08/M03 A3029 RMK A01 T00801029  RH  046%=      5-min Rain = 0
KMC4 200223Z 03004KT 08/M03 A3029 RMK A01 T00791029  RH  046%=      5-min Rain = 0
KMC4 200224Z 03004KT 08/M03 A3029 RMK A01 T00781030  RH  046%=      5-min Rain = 0
KMC4 200225Z 04004KT 08/M03 A3029 RMK A01 T00781030  RH  046%=      5-min Rain = 0
KMC4 200226Z 04004KT 08/M03 A3029 RMK A01 T00781029  RH  047%=      5-min Rain = 0
KMC4 200227Z 04004KT 08/M03 A3029 RMK A01 T00771028  RH  047%=      5-min Rain = 0
KMC4 200228Z 04003KT 08/M03 A3029 RMK A01 T00771028  RH  048%=      5-min Rain = 0
KMC4 200229Z 05003KT 08/M03 A3029 RMK A01 T00761029  RH  047%=      5-min Rain = 0
KMC4 200230Z 06002KT 08/M03 A303 RMK A01 T00761029  RH  047%=      5-min Rain = 0
KMC4 200231Z 06002KT 08/M03 A303 RMK A01 T00751030  RH  047%=      5-min Rain = 0
KMC4 200232Z 06002KT 08/M03 A303 RMK A01 T00761030  RH  047%=      5-min Rain = 0
KMC4 200233Z 07002KT 08/M03 A303 RMK A01 T00761030  RH  047%=      5-min Rain = 0
KMC4 200234Z 09001KT 08/M03 A303 RMK A01 T00761030  RH  047%=      5-min Rain = 0
KMC4 200235Z 09001KT 08/M03 A303 RMK A01 T00761028  RH  047%=      5-min Rain = 0
KMC4 200236Z 11001KT 08/M03 A303 RMK A01 T00761028  RH  048%=      5-min Rain = 0
KMC4 200237Z 12001KT 07/M03 A303 RMK A01 T00741026  RH  049%=      5-min Rain = 0
KMC4 200238Z 13001KT 07/M03 A303 RMK A01 T00721027  RH  049%=      5-min Rain = 0
KMC4 200239Z 12002KT 07/M03 A303 RMK A01 T00701028  RH  050%=      5-min Rain = 0
KMC4 200240Z 13002KT 07/M03 A303 RMK A01 T00661027  RH  051%=      5-min Rain = 0
KMC4 200241Z 14001KT 06/M03 A303 RMK A01 T00601030  RH  053%=      5-min Rain = 0
KMC4 200242Z 14002KT 06/M03 A3029 RMK A01 T00551031  RH  054%=      5-min Rain = 0
KMC4 200243Z 13002KT 05/M03 A3029 RMK A01 T00521031  RH  055%=      5-min Rain = 0
KMC4 200244Z 12002KT 05/M03 A3029 RMK A01 T00501031  RH  056%=      5-min Rain = 0
KMC4 200245Z 11002KT 05/M03 A3029 RMK A01 T00491031  RH  056%=      5-min Rain = 0
KMC4 200246Z 09001KT 05/M03 A3029 RMK A01 T00491030  RH  056%=      5-min Rain = 0
KMC4 200247Z 07002KT 05/M03 A3029 RMK A01 T00491029  RH  057%=      5-min Rain = 0
KMC4 200248Z 07003KT 05/M03 A3029 RMK A01 T00491030  RH  057%=      5-min Rain = 0
KMC4 200249Z 06002KT 05/M03 A3029 RMK A01 T00491030  RH  057%=      5-min Rain = 0
KMC4 200250Z 06003KT 05/M03 A3029 RMK A01 T00501029  RH  057%=      5-min Rain = 0
KMC4 200251Z 06003KT 05/M03 A3029 RMK A01 T00511028  RH  057%=      5-min Rain = 0
KMC4 200252Z 06004KT 05/M03 A3029 RMK A01 T00521028  RH  056%=      5-min Rain = 0
KMC4 200253Z 06004KT 05/M03 A3029 RMK A01 T00541027  RH  056%=      5-min Rain = 0
KMC4 200254Z 07004KT 06/M03 A3029 RMK A01 T00561028  RH  055%=      5-min Rain = 0
KMC4 200255Z 07004KT 06/M03 A3029 RMK A01 T00601027  RH  054%=      5-min Rain = 0
KMC4 200256Z 07004KT 06/M03 A3029 RMK A01 T00621026  RH  053%=      5-min Rain = 0
KMC4 200257Z 07004KT 07/M03 A3029 RMK A01 T00651026  RH  052%=      5-min Rain = 0
KMC4 200258Z 07003KT 07/M03 A3029 RMK A01 T00671026  RH  051%=      5-min Rain = 0
KMC4 200259Z 07003KT 07/M03 A3029 RMK A01 T00681025  RH  051%=      5-min Rain = 0
KMC4 200300Z 07003KT 07/M03 A3029 RMK A01 T00681025  RH  052%=      5-min Rain = 0
KMC4 200301Z 10002KT 07/M02 A3029 RMK A01 T00681024  RH  052%=      5-min Rain = 0
KMC4 200302Z 19002KT 07/M03 A3029 RMK A01 T00651026  RH  052%=      5-min Rain = 0
KMC4 200303Z 12002KT 06/M03 A3029 RMK A01 T00581031  RH  053%=      5-min Rain = 0
KMC4 200304Z 14002KT 06/M03 A3029 RMK A01 T00571030  RH  053%=      5-min Rain = 0
KMC4 200305Z 14002KT 06/M03 A3029 RMK A01 T00551030  RH  054%=      5-min Rain = 0
KMC4 200306Z 16003KT 05/M03 A3029 RMK A01 T00511031  RH  055%=      5-min Rain = 0
KMC4 200307Z 18005KT 05/M03 A3029 RMK A01 T00481031  RH  057%=      5-min Rain = 0
KMC4 200308Z 16004KT 05/M03 A3029 RMK A01 T00451031  RH  058%=      5-min Rain = 0
KMC4 200309Z 15003KT 04/M03 A3029 RMK A01 T00431032  RH  058%=      5-min Rain = 0
KMC4 200310Z 12003KT 04/M03 A3029 RMK A01 T00421032  RH  059%=      5-min Rain = 0
KMC4 200311Z 11002KT 04/M03 A3029 RMK A01 T00421031  RH  059%=      5-min Rain = 0
KMC4 200312Z 11002KT 04/M03 A303 RMK A01 T00421031  RH  059%=      5-min Rain = 0
KMC4 200313Z 10002KT 04/M03 A303 RMK A01 T00421030  RH  059%=      5-min Rain = 0
KMC4 200314Z 10002KT 04/M03 A303 RMK A01 T00421031  RH  059%=      5-min Rain = 0
KMC4 200315Z 10002KT 04/M03 A303 RMK A01 T00421029  RH  060%=      5-min Rain = 0
KMC4 200316Z 10002KT 04/M03 A303 RMK A01 T00431029  RH  059%=      5-min Rain = 0
KMC4 200317Z 09002KT 05/M03 A303 RMK A01 T00451028  RH  059%=      5-min Rain = 0
KMC4 200318Z 08002KT 05/M03 A303 RMK A01 T00461028  RH  059%=      5-min Rain = 0
KMC4 200319Z 08001KT 05/M03 A303 RMK A01 T00481028  RH  058%=      5-min Rain = 0
KMC4 200320Z 08001KT 05/M03 A303 RMK A01 T00501028  RH  057%=      5-min Rain = 0
KMC4 200321Z 09001KT 05/M03 A303 RMK A01 T00521028  RH  056%=      5-min Rain = 0
KMC4 200322Z 12001KT 05/M03 A303 RMK A01 T00541028  RH  056%=      5-min Rain = 0
KMC4 200323Z 13002KT 06/M03 A303 RMK A01 T00561027  RH  055%=      5-min Rain = 0
KMC4 200324Z 13002KT 06/M03 A303 RMK A01 T00561027  RH  055%=      5-min Rain = 0
KMC4 200325Z 14002KT 06/M03 A303 RMK A01 T00561026  RH  055%=      5-min Rain = 0
KMC4 200326Z 14001KT 06/M03 A303 RMK A01 T00561025  RH  056%=      5-min Rain = 0
KMC4 200327Z 14001KT 06/M03 A303 RMK A01 T00551025  RH  056%=      5-min Rain = 0
KMC4 200328Z 13001KT 06/M03 A303 RMK A01 T00551025  RH  056%=      5-min Rain = 0
KMC4 200329Z 12001KT 05/M03 A303 RMK A01 T00541026  RH  056%=      5-min Rain = 0
KMC4 200330Z 11001KT 05/M03 A303 RMK A01 T00541025  RH  056%=      5-min Rain = 0
KMC4 200331Z 11001KT 06/M03 A303 RMK A01 T00551026  RH  056%=      5-min Rain = 0
KMC4 200332Z 11000KT 06/M03 A303 RMK A01 T00561025  RH  056%=      5-min Rain = 0
KMC4 200333Z 16000KT 06/M03 A303 RMK A01 T00561025  RH  056%=      5-min Rain = 0
KMC4 200334Z 17001KT 06/M03 A303 RMK A01 T00571026  RH  055%=      5-min Rain = 0
KMC4 200335Z 17000KT 06/M03 A303 RMK A01 T00571026  RH  055%=      5-min Rain = 0
KMC4 200336Z 16000KT 06/M03 A303 RMK A01 T00571025  RH  055%=      5-min Rain = 0
KMC4 200337Z 00000KT 06/M03 A303 RMK A01 T00571026  RH  055%=      5-min Rain = 0
KMC4 200338Z 05001KT 06/M03 A3031 RMK A01 T00581026  RH  055%=      5-min Rain = 0
KMC4 200339Z 06000KT 06/M03 A3031 RMK A01 T00581027  RH  054%=      5-min Rain = 0
KMC4 200340Z 00000KT 06/M03 A3031 RMK A01 T00591026  RH  054%=      5-min Rain = 0
KMC4 200341Z 20000KT 06/M03 A3031 RMK A01 T00601025  RH  054%=      5-min Rain = 0
KMC4 200342Z 20002KT 06/M02 A3031 RMK A01 T00601024  RH  055%=      5-min Rain = 0
KMC4 200343Z 20001KT 06/M02 A3031 RMK A01 T00591024  RH  055%=      5-min Rain = 0
KMC4 200344Z 21001KT 06/M02 A3031 RMK A01 T00581023  RH  056%=      5-min Rain = 0
KMC4 200345Z 21000KT 06/M02 A3032 RMK A01 T00571022  RH  057%=      5-min Rain = 0
KMC4 200346Z 00000KT 06/M02 A3032 RMK A01 T00561021  RH  057%=      5-min Rain = 0
KMC4 200347Z 23000KT 06/M02 A3032 RMK A01 T00561023  RH  057%=      5-min Rain = 0
KMC4 200348Z 23001KT 06/M02 A3032 RMK A01 T00571024  RH  056%=      5-min Rain = 0
KMC4 200349Z 23001KT 06/M03 A3032 RMK A01 T00571025  RH  055%=      5-min Rain = 0
KMC4 200350Z 22002KT 06/M03 A3032 RMK A01 T00581026  RH  055%=      5-min Rain = 0
KMC4 200351Z 23002KT 06/M03 A3032 RMK A01 T00591027  RH  054%=      5-min Rain = 0
KMC4 200352Z 23002KT 06/M03 A3032 RMK A01 T00591026  RH  054%=      5-min Rain = 0
KMC4 200353Z 23002KT 06/M03 A3032 RMK A01 T00601027  RH  054%=      5-min Rain = 0
KMC4 200354Z 25002KT 06/M03 A3032 RMK A01 T00601027  RH  054%=      5-min Rain = 0
KMC4 200355Z 24001KT 06/M03 A3032 RMK A01 T00611026  RH  053%=      5-min Rain = 0
KMC4 200356Z 25001KT 06/M03 A3032 RMK A01 T00631027  RH  053%=      5-min Rain = 0
KMC4 200357Z 27001KT 06/M03 A3033 RMK A01 T00641026  RH  053%=      5-min Rain = 0
KMC4 200358Z 26001KT 06/M03 A3033 RMK A01 T00641027  RH  052%=      5-min Rain = 0
KMC4 200359Z 25001KT 07/M03 A3033 RMK A01 T00651027  RH  052%=      5-min Rain = 0
KMC4 200400Z 23001KT 07/M03 A3033 RMK A01 T00661027  RH  052%=      5-min Rain = 0
KMC4 200401Z 22001KT 07/M03 A3033 RMK A01 T00661027  RH  052%=      5-min Rain = 0
KMC4 200402Z 24001KT 07/M03 A3033 RMK A01 T00661026  RH  052%=      5-min Rain = 0
KMC4 200403Z 30001KT 07/M03 A3033 RMK A01 T00651026  RH  052%=      5-min Rain = 0
KMC4 200404Z 30001KT 07/M03 A3033 RMK A01 T00651026  RH  052%=      5-min Rain = 0
KMC4 200405Z 30001KT 06/M03 A3033 RMK A01 T00641026  RH  052%=      5-min Rain = 0
KMC4 200406Z 33001KT 06/M03 A3033 RMK A01 T00631026  RH  053%=      5-min Rain = 0
KMC4 200407Z 33001KT 06/M03 A3033 RMK A01 T00621026  RH  053%=      5-min Rain = 0
KMC4 200408Z 34000KT 06/M02 A3033 RMK A01 T00611023  RH  055%=      5-min Rain = 0
KMC4 200409Z 34001KT 06/M02 A3033 RMK A01 T00591022  RH  056%=      5-min Rain = 0
KMC4 200410Z 34001KT 06/M02 A3033 RMK A01 T00581022  RH  056%=      5-min Rain = 0
KMC4 200411Z 34001KT 06/M02 A3033 RMK A01 T00571023  RH  056%=      5-min Rain = 0
KMC4 200412Z 34000KT 06/M02 A3033 RMK A01 T00571023  RH  056%=      5-min Rain = 0
KMC4 200413Z 00000KT 06/M02 A3033 RMK A01 T00571024  RH  056%=      5-min Rain = 0
KMC4 200414Z 00000KT 06/M02 A3033 RMK A01 T00571024  RH  056%=      5-min Rain = 0
KMC4 200415Z 00000KT 06/M02 A3033 RMK A01 T00571024  RH  056%=      5-min Rain = 0
KMC4 200416Z 00000KT 06/M02 A3033 RMK A01 T00571024  RH  056%=      5-min Rain = 0
KMC4 200417Z 00000KT 06/M02 A3033 RMK A01 T00571024  RH  056%=      5-min Rain = 0
KMC4 200418Z 35001KT 06/M02 A3034 RMK A01 T00561023  RH  057%=      5-min Rain = 0
KMC4 200419Z 00001KT 06/M02 A3034 RMK A01 T00561024  RH  057%=      5-min Rain = 0
KMC4 200420Z 00002KT 06/M02 A3034 RMK A01 T00551024  RH  057%=      5-min Rain = 0
KMC4 200421Z 01002KT 06/M02 A3034 RMK A01 T00551024  RH  057%=      5-min Rain = 0
KMC4 200422Z 02002KT 06/M02 A3034 RMK A01 T00551024  RH  057%=      5-min Rain = 0
KMC4 200423Z 03002KT 06/M02 A3034 RMK A01 T00551024  RH  057%=      5-min Rain = 0
KMC4 200424Z 03003KT 06/M02 A3034 RMK A01 T00551024  RH  057%=      5-min Rain = 0
KMC4 200425Z 04003KT 06/M02 A3033 RMK A01 T00551024  RH  057%=      5-min Rain = 0
KMC4 200426Z 05003KT 05/M02 A3033 RMK A01 T00541024  RH  057%=      5-min Rain = 0
KMC4 200427Z 07003KT 05/M02 A3032 RMK A01 T00531024  RH  057%=      5-min Rain = 0
KMC4 200428Z 09004KT 05/M03 A3032 RMK A01 T00531025  RH  057%=      5-min Rain = 0
KMC4 200429Z 11004KT 05/M03 A3031 RMK A01 T00531025  RH  057%=      5-min Rain = 0
KMC4 200430Z 11005KT 05/M02 A3031 RMK A01 T00531024  RH  058%=      5-min Rain = 0
KMC4 200431Z 11005KT 05/M02 A3032 RMK A01 T00531022  RH  058%=      5-min Rain = 0
KMC4 200432Z 11004KT 05/M02 A3032 RMK A01 T00521022  RH  059%=      5-min Rain = 0
KMC4 200433Z 12004KT 05/M02 A3032 RMK A01 T00521023  RH  058%=      5-min Rain = 0
KMC4 200434Z 12004KT 05/M03 A3032 RMK A01 T00541025  RH  057%=      5-min Rain = 0
KMC4 200435Z 12004KT 06/M03 A3032 RMK A01 T00571025  RH  056%=      5-min Rain = 0
KMC4 200436Z 12005KT 06/M03 A3032 RMK A01 T00581025  RH  055%=      5-min Rain = 0
KMC4 200437Z 12004KT 06/M02 A3032 RMK A01 T00581024  RH  055%=      5-min Rain = 0
KMC4 200438Z 13005KT 06/M02 A3032 RMK A01 T00571022  RH  057%=      5-min Rain = 0
KMC4 200439Z 12005KT 06/M02 A3032 RMK A01 T00561024  RH  056%=      5-min Rain = 0
KMC4 200440Z 12005KT 06/M03 A3032 RMK A01 T00561026  RH  055%=      5-min Rain = 0
KMC4 200441Z 12005KT 06/M03 A3032 RMK A01 T00591026  RH  054%=      5-min Rain = 0
KMC4 200442Z 12005KT 06/M03 A3031 RMK A01 T00611027  RH  053%=      5-min Rain = 0
KMC4 200443Z 12005KT 06/M03 A3031 RMK A01 T00641027  RH  052%=      5-min Rain = 0
KMC4 200444Z 12005KT 07/M03 A3031 RMK A01 T00651027  RH  052%=      5-min Rain = 0
KMC4 200445Z 11005KT 06/M03 A3031 RMK A01 T00631027  RH  052%=      5-min Rain = 0
KMC4 200446Z 11005KT 06/M03 A3031 RMK A01 T00611027  RH  053%=      5-min Rain = 0
KMC4 200447Z 11004KT 06/M03 A3031 RMK A01 T00591027  RH  054%=      5-min Rain = 0
KMC4 200448Z 11004KT 06/M03 A3031 RMK A01 T00581028  RH  054%=      5-min Rain = 0
KMC4 200449Z 10004KT 06/M03 A3031 RMK A01 T00581029  RH  054%=      5-min Rain = 0
KMC4 200450Z 10004KT 06/M03 A3031 RMK A01 T00581028  RH  054%=      5-min Rain = 0
KMC4 200451Z 10004KT 06/M03 A3031 RMK A01 T00571029  RH  054%=      5-min Rain = 0
KMC4 200452Z 10004KT 06/M03 A3031 RMK A01 T00561029  RH  054%=      5-min Rain = 0
KMC4 200453Z 09004KT 06/M03 A3031 RMK A01 T00561029  RH  055%=      5-min Rain = 0
KMC4 200454Z 10004KT 06/M03 A3031 RMK A01 T00561029  RH  055%=      5-min Rain = 0
KMC4 200455Z 10004KT 06/M03 A3031 RMK A01 T00551029  RH  055%=      5-min Rain = 0
KMC4 200456Z 10004KT 06/M03 A303 RMK A01 T00551029  RH  055%=      5-min Rain = 0
KMC4 200457Z 10004KT 06/M03 A3031 RMK A01 T00551029  RH  055%=      5-min Rain = 0
KMC4 200458Z 09004KT 06/M03 A3031 RMK A01 T00551029  RH  055%=      5-min Rain = 0
KMC4 200459Z 09004KT 06/M03 A3031 RMK A01 T00551029  RH  055%=      5-min Rain = 0
KMC4 200500Z 09004KT 06/M03 A3031 RMK A01 T00551030  RH  054%=      5-min Rain = 0
KMC4 200501Z 09003KT 06/M03 A3031 RMK A01 T00561030  RH  054%=      5-min Rain = 0
KMC4 200502Z 08003KT 06/M03 A3031 RMK A01 T00561030  RH  054%=      5-min Rain = 0
KMC4 200503Z 08004KT 06/M03 A3031 RMK A01 T00561029  RH  054%=      5-min Rain = 0
KMC4 200504Z 08004KT 06/M03 A3031 RMK A01 T00561029  RH  054%=      5-min Rain = 0
KMC4 200505Z 08004KT 06/M03 A3031 RMK A01 T00561029  RH  054%=      5-min Rain = 0
KMC4 200506Z 07004KT 06/M03 A3031 RMK A01 T00561029  RH  054%=      5-min Rain = 0
KMC4 200507Z 07003KT 06/M03 A3031 RMK A01 T00561029  RH  054%=      5-min Rain = 0
KMC4 200508Z 07004KT 06/M03 A3031 RMK A01 T00551028  RH  055%=      5-min Rain = 0
KMC4 200509Z 07004KT 05/M03 A3031 RMK A01 T00541028  RH  056%=      5-min Rain = 0
KMC4 200510Z 06004KT 05/M03 A3031 RMK A01 T00541028  RH  056%=      5-min Rain = 0
KMC4 200511Z 05003KT 05/M03 A3032 RMK A01 T00531027  RH  056%=      5-min Rain = 0
KMC4 200512Z 05003KT 05/M03 A3032 RMK A01 T00521028  RH  056%=      5-min Rain = 0
KMC4 200513Z 06003KT 05/M03 A3032 RMK A01 T00521028  RH  056%=      5-min Rain = 0
KMC4 200514Z 07003KT 05/M03 A3031 RMK A01 T00521028  RH  056%=      5-min Rain = 0
KMC4 200515Z 07003KT 05/M03 A3031 RMK A01 T00521028  RH  056%=      5-min Rain = 0
KMC4 200516Z 07003KT 05/M03 A3031 RMK A01 T00521028  RH  056%=      5-min Rain = 0
KMC4 200517Z 07002KT 05/M03 A3031 RMK A01 T00511029  RH  056%=      5-min Rain = 0
KMC4 200518Z 07002KT 05/M03 A3031 RMK A01 T00511028  RH  057%=      5-min Rain = 0
KMC4 200519Z 06002KT 05/M03 A3032 RMK A01 T00501028  RH  057%=      5-min Rain = 0
KMC4 200520Z 05001KT 05/M03 A3032 RMK A01 T00501029  RH  056%=      5-min Rain = 0
KMC4 200521Z 03000KT 05/M03 A3032 RMK A01 T00511030  RH  056%=      5-min Rain = 0
KMC4 200522Z 03000KT 05/M03 A3033 RMK A01 T00521029  RH  056%=      5-min Rain = 0
KMC4 200523Z 02000KT 05/M03 A3033 RMK A01 T00511029  RH  056%=      5-min Rain = 0
KMC4 200524Z 00000KT 05/M03 A3033 RMK A01 T00511027  RH  057%=      5-min Rain = 0
KMC4 200525Z 08000KT 05/M03 A3033 RMK A01 T00501028  RH  057%=      5-min Rain = 0
KMC4 200526Z 07000KT 05/M03 A3033 RMK A01 T00511029  RH  056%=      5-min Rain = 0
KMC4 200527Z 09001KT 05/M03 A3033 RMK A01 T00541029  RH  055%=      5-min Rain = 0
KMC4 200528Z 05001KT 05/M03 A3033 RMK A01 T00541029  RH  055%=      5-min Rain = 0
KMC4 200529Z 11001KT 05/M03 A3032 RMK A01 T00531027  RH  056%=      5-min Rain = 0
KMC4 200530Z 12002KT 05/M03 A3032 RMK A01 T00521027  RH  057%=      5-min Rain = 0
KMC4 200531Z 13001KT 05/M03 A3032 RMK A01 T00501027  RH  057%=      5-min Rain = 0
KMC4 200532Z 11002KT 05/M03 A3032 RMK A01 T00501027  RH  058%=      5-min Rain = 0
KMC4 200533Z 13003KT 05/M03 A3032 RMK A01 T00501027  RH  058%=      5-min Rain = 0
KMC4 200534Z 12003KT 05/M03 A3032 RMK A01 T00501028  RH  057%=      5-min Rain = 0
KMC4 200535Z 12003KT 05/M03 A3032 RMK A01 T00531028  RH  056%=      5-min Rain = 0
KMC4 200536Z 12002KT 06/M03 A3032 RMK A01 T00551028  RH  055%=      5-min Rain = 0
KMC4 200537Z 12003KT 06/M03 A3032 RMK A01 T00561028  RH  054%=      5-min Rain = 0
KMC4 200538Z 12003KT 06/M03 A3032 RMK A01 T00581029  RH  054%=      5-min Rain = 0
KMC4 200539Z 12003KT 06/M03 A3032 RMK A01 T00601029  RH  053%=      5-min Rain = 0
KMC4 200540Z 12003KT 06/M03 A3032 RMK A01 T00611029  RH  052%=      5-min Rain = 0
KMC4 200541Z 11002KT 06/M03 A3032 RMK A01 T00621029  RH  052%=      5-min Rain = 0
KMC4 200542Z 12002KT 06/M03 A3032 RMK A01 T00621030  RH  052%=      5-min Rain = 0
KMC4 200543Z 12002KT 06/M03 A3032 RMK A01 T00631030  RH  052%=      5-min Rain = 0
KMC4 200544Z 13002KT 06/M03 A3032 RMK A01 T00621030  RH  052%=      5-min Rain = 0
KMC4 200545Z 12001KT 06/M03 A3032 RMK A01 T00621030  RH  052%=      5-min Rain = 0
KMC4 200546Z 10001KT 06/M03 A3032 RMK A01 T00611031  RH  052%=      5-min Rain = 0
KMC4 200547Z 08001KT 06/M03 A3032 RMK A01 T00621030  RH  052%=      5-min Rain = 0
KMC4 200548Z 07001KT 06/M03 A3032 RMK A01 T00621030  RH  052%=      5-min Rain = 0
KMC4 200549Z 11003KT 06/M03 A3032 RMK A01 T00611029  RH  052%=      5-min Rain = 0
KMC4 200550Z 10003KT 06/M03 A3032 RMK A01 T00601029  RH  053%=      5-min Rain = 0
KMC4 200551Z 10004KT 06/M03 A3032 RMK A01 T00591029  RH  053%=      5-min Rain = 0
KMC4 200552Z 11004KT 06/M03 A3032 RMK A01 T00571029  RH  054%=      5-min Rain = 0
KMC4 200553Z 12004KT 06/M03 A3032 RMK A01 T00561029  RH  054%=      5-min Rain = 0
KMC4 200554Z 13004KT 06/M03 A3032 RMK A01 T00551030  RH  054%=      5-min Rain = 0
KMC4 200555Z 13004KT 06/M03 A3032 RMK A01 T00561030  RH  054%=      5-min Rain = 0
KMC4 200556Z 13004KT 06/M03 A3032 RMK A01 T00561029  RH  054%=      5-min Rain = 0
KMC4 200557Z 12003KT 06/M03 A3032 RMK A01 T00551028  RH  055%=      5-min Rain = 0
KMC4 200558Z 11003KT 06/M03 A3032 RMK A01 T00551028  RH  055%=      5-min Rain = 0
KMC4 200559Z 11003KT 05/M03 A3032 RMK A01 T00541028  RH  055%=      5-min Rain = 0

Page generated in 0.1605 seconds.